Wetterdaten: Freitag, 19.06.2015
Datum Zeit Temp. Aussen +5cm Feuchte Auss BlattFeu 1 Luftdruck Regen Sonnenschein Regendauer Solar Windben
19.06.2015 00:00 12,4 C 11,1 C 76 % 0 lf 1017,5 hPa 0,0 l/m 0 min 0 min 0 W/m 2,1 km/h (1 Bft)
19.06.2015 00:02 12,4 C 11,1 C 76 % 0 lf 1017,5 hPa 0,0 l/m 0 min 0 min 0 W/m 4,2 km/h (1 Bft)
19.06.2015 00:05 12,4 C 11,1 C 76 % 0 lf 1017,6 hPa 0,0 l/m 0 min 0 min 0 W/m 4,2 km/h (1 Bft)
19.06.2015 00:06 12,4 C 11,1 C 76 % 0 lf 1017,5 hPa 0,0 l/m 0 min 0 min 0 W/m 6,3 km/h (2 Bft)
19.06.2015 00:08 12,3 C 11,1 C 76 % 0 lf 1017,6 hPa 0,0 l/m 0 min 0 min 0 W/m 6,3 km/h (2 Bft)
19.06.2015 00:10 12,3 C 11,1 C 76 % 0 lf 1017,5 hPa 0,0 l/m 0 min 0 min 0 W/m 6,3 km/h (2 Bft)
19.06.2015 00:12 12,3 C 11,1 C 76 % 0 lf 1017,5 hPa 0,0 l/m 0 min 0 min 0 W/m 8,4 km/h (2 Bft)
19.06.2015 00:14 12,3 C 11,1 C 76 % 0 lf 1017,6 hPa 0,0 l/m 0 min 0 min 0 W/m 10,5 km/h (2 Bft)
19.06.2015 00:16 12,3 C 11,1 C 76 % 0 lf 1017,5 hPa 0,0 l/m 0 min 0 min 0 W/m 6,3 km/h (2 Bft)
19.06.2015 00:18 12,3 C 11,1 C 76 % 0 lf 1017,5 hPa 0,0 l/m 0 min 0 min 0 W/m 8,4 km/h (2 Bft)
19.06.2015 00:20 12,2 C 11,1 C 76 % 0 lf 1017,5 hPa 0,0 l/m 0 min 0 min 0 W/m 6,3 km/h (2 Bft)
19.06.2015 00:22 12,2 C 11,1 C 76 % 0 lf 1017,5 hPa 0,0 l/m 0 min 0 min 0 W/m 8,4 km/h (2 Bft)
19.06.2015 00:24 12,2 C 11,1 C 77 % 0 lf 1017,5 hPa 0,0 l/m 0 min 0 min 0 W/m 6,3 km/h (2 Bft)
19.06.2015 00:26 12,2 C 11,1 C 77 % 0 lf 1017,5 hPa 0,0 l/m 0 min 0 min 0 W/m 10,5 km/h (2 Bft)
19.06.2015 00:28 12,2 C 11,1 C 77 % 0 lf 1017,6 hPa 0,0 l/m 0 min 0 min 0 W/m 8,4 km/h (2 Bft)
19.06.2015 00:30 12,2 C 11,1 C 77 % 0 lf 1017,5 hPa 0,0 l/m 0 min 0 min 0 W/m 12,6 km/h (3 Bft)
19.06.2015 00:32 12,2 C 11,1 C 77 % 0 lf 1017,5 hPa 0,0 l/m 0 min 0 min 0 W/m 10,5 km/h (2 Bft)
19.06.2015 00:34 12,2 C 11,1 C 77 % 0 lf 1017,5 hPa 0,0 l/m 0 min 0 min 0 W/m 6,3 km/h (2 Bft)
19.06.2015 00:36 12,2 C 11,1 C 77 % 0 lf 1017,5 hPa 0,0 l/m 0 min 0 min 0 W/m 10,5 km/h (2 Bft)
19.06.2015 00:38 12,2 C 11,1 C 77 % 0 lf 1017,6 hPa 0,0 l/m 0 min 0 min 0 W/m 8,4 km/h (2 Bft)
19.06.2015 00:40 12,1 C 11,1 C 77 % 0 lf 1017,5 hPa 0,0 l/m 0 min 0 min 0 W/m 12,6 km/h (3 Bft)
19.06.2015 00:42 12,2 C 11,1 C 77 % 0 lf 1017,6 hPa 0,0 l/m 0 min 0 min 0 W/m 8,4 km/h (2 Bft)
19.06.2015 00:44 12,1 C 11,1 C 77 % 0 lf 1017,6 hPa 0,0 l/m 0 min 0 min 0 W/m 8,4 km/h (2 Bft)
19.06.2015 00:46 12,1 C 11,1 C 77 % 0 lf 1017,5 hPa 0,0 l/m 0 min 0 min 0 W/m 12,6 km/h (3 Bft)
19.06.2015 00:48 12,1 C 11,1 C 77 % 0 lf 1017,5 hPa 0,0 l/m 0 min 0 min 0 W/m 8,4 km/h (2 Bft)
19.06.2015 00:50 12,1 C 11,1 C 77 % 0 lf 1017,5 hPa 0,0 l/m 0 min 0 min 0 W/m 6,3 km/h (2 Bft)
19.06.2015 00:52 12,1 C 11,1 C 77 % 0 lf 1017,5 hPa 0,0 l/m 0 min 0 min 0 W/m 8,4 km/h (2 Bft)
19.06.2015 00:54 12,1 C 11,1 C 77 % 0 lf 1017,5 hPa 0,0 l/m 0 min 0 min 0 W/m 10,5 km/h (2 Bft)
19.06.2015 00:56 12,1 C 11,1 C 77 % 0 lf 1017,6 hPa 0,0 l/m 0 min 0 min 0 W/m 8,4 km/h (2 Bft)
19.06.2015 00:58 12,1 C 11,1 C 77 % 0 lf 1017,6 hPa 0,0 l/m 0 min 0 min 0 W/m 6,3 km/h (2 Bft)
19.06.2015 01:00 12,1 C 11,1 C 77 % 0 lf 1017,5 hPa 0,0 l/m 0 min 0 min 0 W/m 8,4 km/h (2 Bft)
19.06.2015 01:02 12,1 C 11,1 C 77 % 0 lf 1017,6 hPa 0,0 l/m 0 min 0 min 0 W/m 12,6 km/h (3 Bft)
19.06.2015 01:04 12,1 C 11,1 C 77 % 0 lf 1017,6 hPa 0,0 l/m 0 min 0 min 0 W/m 10,5 km/h (2 Bft)
19.06.2015 01:06 12,1 C 11,1 C 77 % 0 lf 1017,5 hPa 0,0 l/m 0 min 0 min 0 W/m 8,4 km/h (2 Bft)
19.06.2015 01:08 12,1 C 11,7 C 77 % 0 lf 1017,6 hPa 0,0 l/m 0 min 0 min 0 W/m 10,5 km/h (2 Bft)
19.06.2015 01:10 12,1 C 11,7 C 77 % 0 lf 1017,5 hPa 0,0 l/m 0 min 0 min 0 W/m 8,4 km/h (2 Bft)
19.06.2015 01:12 12,1 C 11,7 C 77 % 0 lf 1017,6 hPa 0,0 l/m 0 min 0 min 0 W/m 14,6 km/h (3 Bft)
19.06.2015 01:14 12,1 C 11,7 C 77 % 0 lf 1017,6 hPa 0,0 l/m 0 min 0 min 0 W/m 12,6 km/h (3 Bft)
19.06.2015 01:16 12,1 C 11,1 C 77 % 0 lf 1017,6 hPa 0,0 l/m 0 min 0 min 0 W/m 16,7 km/h (3 Bft)
19.06.2015 01:18 12,1 C 11,1 C 77 % 0 lf 1017,6 hPa 0,0 l/m 0 min 0 min 0 W/m 6,3 km/h (2 Bft)
19.06.2015 01:20 12,1 C 11,1 C 77 % 0 lf 1017,6 hPa 0,0 l/m 0 min 0 min 0 W/m 8,4 km/h (2 Bft)
19.06.2015 01:22 12,1 C 11,1 C 77 % 0 lf 1017,5 hPa 0,0 l/m 0 min 0 min 0 W/m 8,4 km/h (2 Bft)
19.06.2015 01:24 12,1 C 11,1 C 77 % 0 lf 1017,6 hPa 0,0 l/m 0 min 0 min 0 W/m 10,5 km/h (2 Bft)
19.06.2015 01:26 12,1 C 11,1 C 77 % 0 lf 1017,6 hPa 0,0 l/m 0 min 0 min 0 W/m 10,5 km/h (2 Bft)
19.06.2015 01:28 12,1 C 11,1 C 77 % 0 lf 1017,5 hPa 0,0 l/m 0 min 0 min 0 W/m 10,5 km/h (2 Bft)
19.06.2015 01:30 12,1 C 11,1 C 77 % 0 lf 1017,5 hPa 0,0 l/m 0 min 0 min 0 W/m 4,2 km/h (1 Bft)
19.06.2015 01:32 12,2 C 11,1 C 77 % 0 lf 1017,5 hPa 0,0 l/m 0 min 0 min 0 W/m 8,4 km/h (2 Bft)
19.06.2015 01:34 12,2 C 11,1 C 77 % 0 lf 1017,6 hPa 0,0 l/m 0 min 0 min 0 W/m 12,6 km/h (3 Bft)
19.06.2015 01:36 12,2 C 11,1 C 77 % 0 lf 1017,5 hPa 0,0 l/m 0 min 0 min 0 W/m 10,5 km/h (2 Bft)
19.06.2015 01:38 12,2 C 11,1 C 77 % 0 lf 1017,5 hPa 0,0 l/m 0 min 0 min 0 W/m 14,6 km/h (3 Bft)
19.06.2015 01:40 12,1 C 11,1 C 77 % 0 lf 1017,5 hPa 0,0 l/m 0 min 0 min 0 W/m 8,4 km/h (2 Bft)
19.06.2015 01:42 12,2 C 11,1 C 77 % 0 lf 1017,5 hPa 0,0 l/m 0 min 0 min 0 W/m 14,6 km/h (3 Bft)
19.06.2015 01:44 12,2 C 11,1 C 77 % 0 lf 1017,5 hPa 0,0 l/m 0 min 0 min 0 W/m 10,5 km/h (2 Bft)
19.06.2015 01:46 12,2 C 11,1 C 77 % 0 lf 1017,6 hPa 0,0 l/m 0 min 0 min 0 W/m 16,7 km/h (3 Bft)
19.06.2015 01:48 12,2 C 11,1 C 77 % 0 lf 1017,5 hPa 0,0 l/m 0 min 0 min 0 W/m 16,7 km/h (3 Bft)
19.06.2015 01:50 12,2 C 11,1 C 77 % 0 lf 1017,5 hPa 0,0 l/m 0 min 0 min 0 W/m 12,6 km/h (3 Bft)
19.06.2015 01:52 12,1 C 11,1 C 77 % 0 lf 1017,5 hPa 0,0 l/m 0 min 0 min 0 W/m 12,6 km/h (3 Bft)
19.06.2015 01:54 12,2 C 11,1 C 77 % 0 lf 1017,5 hPa 0,0 l/m 0 min 0 min 0 W/m 12,6 km/h (3 Bft)
19.06.2015 01:56 12,1 C 11,1 C 77 % 0 lf 1017,5 hPa 0,0 l/m 0 min 0 min 0 W/m 16,7 km/h (3 Bft)
19.06.2015 01:58 12,1 C 11,1 C 77 % 0 lf 1017,5 hPa 0,0 l/m 0 min 0 min 0 W/m 8,4 km/h (2 Bft)
19.06.2015 02:00 12,2 C 11,1 C 77 % 0 lf 1017,5 hPa 0,0 l/m 0 min 0 min 0 W/m 14,6 km/h (3 Bft)
19.06.2015 02:02 12,1 C 11,1 C 77 % 0 lf 1017,5 hPa 0,0 l/m 0 min 0 min 0 W/m 12,6 km/h (3 Bft)
19.06.2015 02:04 12,2 C 11,1 C 77 % 0 lf 1017,5 hPa 0,0 l/m 0 min 0 min 0 W/m 8,4 km/h (2 Bft)
19.06.2015 02:06 12,2 C 11,1 C 77 % 0 lf 1017,5 hPa 0,0 l/m 0 min 0 min 0 W/m 8,4 km/h (2 Bft)
19.06.2015 02:08 12,2 C 11,1 C 77 % 0 lf 1017,5 hPa 0,0 l/m 0 min 0 min 0 W/m 10,5 km/h (2 Bft)
19.06.2015 02:10 12,2 C 11,1 C 77 % 0 lf 1017,4 hPa 0,0 l/m 0 min 0 min 0 W/m 10,5 km/h (2 Bft)
19.06.2015 02:12 12,2 C 11,1 C 77 % 0 lf 1017,5 hPa 0,0 l/m 0 min 0 min 0 W/m 10,5 km/h (2 Bft)
19.06.2015 02:14 12,2 C 11,1 C 77 % 0 lf 1017,4 hPa 0,0 l/m 0 min 0 min 0 W/m 10,5 km/h (2 Bft)
19.06.2015 02:16 12,2 C 11,1 C 77 % 0 lf 1017,4 hPa 0,0 l/m 0 min 0 min 0 W/m 12,6 km/h (3 Bft)
19.06.2015 02:18 12,2 C 11,1 C 78 % 0 lf 1017,4 hPa 0,0 l/m 0 min 0 min 0 W/m 14,6 km/h (3 Bft)
19.06.2015 02:20 12,2 C 11,1 C 78 % 0 lf 1017,4 hPa 0,0 l/m 0 min 0 min 0 W/m 12,6 km/h (3 Bft)
19.06.2015 02:22 12,2 C 11,1 C 77 % 0 lf 1017,4 hPa 0,0 l/m 0 min 0 min 0 W/m 14,6 km/h (3 Bft)
19.06.2015 02:24 12,2 C 11,1 C 78 % 0 lf 1017,4 hPa 0,0 l/m 0 min 0 min 0 W/m 16,7 km/h (3 Bft)
19.06.2015 02:26 12,1 C 11,1 C 78 % 0 lf 1017,4 hPa 0,0 l/m 0 min 0 min 0 W/m 8,4 km/h (2 Bft)
19.06.2015 02:28 12,2 C 11,1 C 78 % 0 lf 1017,4 hPa 0,0 l/m 0 min 0 min 0 W/m 8,4 km/h (2 Bft)
19.06.2015 02:30 12,2 C 11,1 C 78 % 0 lf 1017,4 hPa 0,0 l/m 0 min 0 min 0 W/m 12,6 km/h (3 Bft)
19.06.2015 02:33 12,2 C 11,1 C 78 % 0 lf 1017,5 hPa 0,0 l/m 0 min 0 min 0 W/m 14,6 km/h (3 Bft)
19.06.2015 02:34 12,1 C 11,1 C 78 % 0 lf 1017,5 hPa 0,0 l/m 0 min 0 min 0 W/m 12,6 km/h (3 Bft)
19.06.2015 02:38 12,1 C 11,1 C 78 % 0 lf 1017,4 hPa 0,0 l/m 0 min 0 min 0 W/m 14,6 km/h (3 Bft)
19.06.2015 02:39 12,1 C 11,1 C 78 % 0 lf 1017,5 hPa 0,0 l/m 0 min 0 min 0 W/m 8,4 km/h (2 Bft)
19.06.2015 02:40 12,1 C 11,1 C 78 % 0 lf 1017,5 hPa 0,0 l/m 0 min 0 min 0 W/m 8,4 km/h (2 Bft)
19.06.2015 02:41 12,1 C 11,1 C 78 % 0 lf 1017,4 hPa 0,0 l/m 0 min 0 min 0 W/m 10,5 km/h (2 Bft)
19.06.2015 02:47 12,1 C 11,1 C 78 % 0 lf 1017,5 hPa 0,0 l/m 0 min 0 min 0 W/m 14,6 km/h (3 Bft)
19.06.2015 02:48 12,1 C 11,1 C 78 % 0 lf 1017,5 hPa 0,0 l/m 0 min 0 min 0 W/m 10,5 km/h (2 Bft)
19.06.2015 02:50 12,1 C 11,1 C 78 % 0 lf 1017,5 hPa 0,0 l/m 0 min 0 min 0 W/m 12,6 km/h (3 Bft)
19.06.2015 02:52 12,1 C 11,1 C 78 % 0 lf 1017,5 hPa 0,0 l/m 0 min 0 min 0 W/m 14,6 km/h (3 Bft)
19.06.2015 02:54 12,1 C 11,1 C 78 % 0 lf 1017,5 hPa 0,0 l/m 0 min 0 min 0 W/m 18,8 km/h (3 Bft)
19.06.2015 02:56 12,1 C 11,1 C 78 % 0 lf 1017,5 hPa 0,0 l/m 0 min 0 min 0 W/m 10,5 km/h (2 Bft)
19.06.2015 02:58 12,1 C 11,1 C 78 % 0 lf 1017,5 hPa 0,0 l/m 0 min 0 min 0 W/m 16,7 km/h (3 Bft)
19.06.2015 03:00 12,1 C 11,1 C 78 % 0 lf 1017,5 hPa 0,0 l/m 0 min 0 min 0 W/m 8,4 km/h (2 Bft)
19.06.2015 03:02 12,1 C 11,1 C 78 % 0 lf 1017,5 hPa 0,0 l/m 0 min 0 min 0 W/m 6,3 km/h (2 Bft)
19.06.2015 03:04 12,1 C 11,1 C 78 % 0 lf 1017,5 hPa 0,0 l/m 0 min 0 min 0 W/m 10,5 km/h (2 Bft)
19.06.2015 03:06 12,1 C 11,1 C 78 % 0 lf 1017,5 hPa 0,0 l/m 0 min 0 min 0 W/m 8,4 km/h (2 Bft)
19.06.2015 03:08 12,1 C 11,1 C 78 % 0 lf 1017,5 hPa 0,0 l/m 0 min 0 min 0 W/m 14,6 km/h (3 Bft)
19.06.2015 03:10 12,1 C 11,1 C 78 % 0 lf 1017,5 hPa 0,0 l/m 0 min 0 min 0 W/m 10,5 km/h (2 Bft)
19.06.2015 03:12 12,1 C 11,1 C 78 % 0 lf 1017,5 hPa 0,0 l/m 0 min 0 min 0 W/m 10,5 km/h (2 Bft)
19.06.2015 03:14 12,1 C 11,1 C 78 % 0 lf 1017,5 hPa 0,0 l/m 0 min 0 min 0 W/m 14,6 km/h (3 Bft)
19.06.2015 03:16 12,1 C 11,1 C 78 % 0 lf 1017,4 hPa 0,0 l/m 0 min 0 min 0 W/m 14,6 km/h (3 Bft)
19.06.2015 03:18 12,1 C 11,1 C 78 % 0 lf 1017,4 hPa 0,0 l/m 0 min 0 min 0 W/m 4,2 km/h (1 Bft)
19.06.2015 03:20 12,0 C 11,1 C 78 % 0 lf 1017,4 hPa 0,0 l/m 0 min 0 min 0 W/m 10,5 km/h (2 Bft)
19.06.2015 03:22 12,0 C 11,1 C 78 % 0 lf 1017,4 hPa 0,0 l/m 0 min 0 min 0 W/m 12,6 km/h (3 Bft)
19.06.2015 03:24 12,0 C 11,1 C 78 % 0 lf 1017,4 hPa 0,0 l/m 0 min 0 min 0 W/m 12,6 km/h (3 Bft)
19.06.2015 03:26 12,0 C 11,1 C 78 % 0 lf 1017,4 hPa 0,0 l/m 0 min 0 min 0 W/m 10,5 km/h (2 Bft)
19.06.2015 03:28 12,0 C 11,1 C 78 % 0 lf 1017,4 hPa 0,0 l/m 0 min 0 min 0 W/m 8,4 km/h (2 Bft)
19.06.2015 03:30 12,0 C 11,1 C 78 % 0 lf 1017,4 hPa 0,0 l/m 0 min 0 min 0 W/m 14,6 km/h (3 Bft)
19.06.2015 03:32 12,0 C 11,1 C 78 % 0 lf 1017,4 hPa 0,0 l/m 0 min 0 min 0 W/m 10,5 km/h (2 Bft)
19.06.2015 03:34 12,0 C 11,1 C 78 % 0 lf 1017,4 hPa 0,0 l/m 0 min 0 min 0 W/m 10,5 km/h (2 Bft)
19.06.2015 03:36 12,0 C 11,1 C 78 % 0 lf 1017,4 hPa 0,0 l/m 0 min 0 min 0 W/m 8,4 km/h (2 Bft)
19.06.2015 03:38 12,0 C 11,1 C 78 % 0 lf 1017,4 hPa 0,0 l/m 0 min 0 min 0 W/m 8,4 km/h (2 Bft)
19.06.2015 03:40 12,0 C 11,1 C 78 % 0 lf 1017,5 hPa 0,0 l/m 0 min 0 min 0 W/m 8,4 km/h (2 Bft)
19.06.2015 03:42 12,0 C 11,1 C 78 % 0 lf 1017,4 hPa 0,0 l/m 0 min 0 min 0 W/m 10,5 km/h (2 Bft)
19.06.2015 03:44 12,0 C 11,1 C 78 % 0 lf 1017,4 hPa 0,0 l/m 0 min 0 min 0 W/m 10,5 km/h (2 Bft)
19.06.2015 03:46 12,0 C 11,1 C 78 % 0 lf 1017,4 hPa 0,0 l/m 0 min 0 min 0 W/m 12,6 km/h (3 Bft)
19.06.2015 03:48 12,0 C 11,1 C 78 % 0 lf 1017,4 hPa 0,0 l/m 0 min 0 min 0 W/m 14,6 km/h (3 Bft)
19.06.2015 03:50 12,0 C 11,1 C 78 % 0 lf 1017,4 hPa 0,0 l/m 0 min 0 min 0 W/m 4,2 km/h (1 Bft)
19.06.2015 03:52 12,0 C 11,1 C 78 % 0 lf 1017,4 hPa 0,0 l/m 0 min 0 min 0 W/m 12,6 km/h (3 Bft)
19.06.2015 03:54 12,0 C 11,1 C 78 % 0 lf 1017,4 hPa 0,0 l/m 0 min 0 min 0 W/m 8,4 km/h (2 Bft)
19.06.2015 03:56 12,0 C 11,1 C 78 % 0 lf 1017,4 hPa 0,0 l/m 0 min 0 min 0 W/m 8,4 km/h (2 Bft)
19.06.2015 03:58 12,0 C 11,1 C 78 % 0 lf 1017,4 hPa 0,0 l/m 0 min 0 min 0 W/m 14,6 km/h (3 Bft)
19.06.2015 04:00 12,0 C 11,1 C 78 % 0 lf 1017,3 hPa 0,0 l/m 0 min 0 min 0 W/m 6,3 km/h (2 Bft)
19.06.2015 04:02 12,0 C 11,1 C 78 % 0 lf 1017,4 hPa 0,0 l/m 0 min 0 min 0 W/m 8,4 km/h (2 Bft)
19.06.2015 04:04 12,0 C 11,1 C 78 % 0 lf 1017,4 hPa 0,0 l/m 0 min 0 min 0 W/m 10,5 km/h (2 Bft)
19.06.2015 04:06 12,0 C 11,1 C 78 % 0 lf 1017,4 hPa 0,0 l/m 0 min 0 min 0 W/m 12,6 km/h (3 Bft)
19.06.2015 04:08 12,0 C 11,1 C 79 % 0 lf 1017,4 hPa 0,0 l/m 0 min 0 min 0 W/m 12,6 km/h (3 Bft)
19.06.2015 04:10 12,0 C 11,1 C 79 % 0 lf 1017,4 hPa 0,0 l/m 0 min 0 min 0 W/m 10,5 km/h (2 Bft)
19.06.2015 04:12 12,0 C 11,1 C 79 % 0 lf 1017,3 hPa 0,0 l/m 0 min 0 min 0 W/m 10,5 km/h (2 Bft)
19.06.2015 04:14 11,9 C 11,1 C 78 % 0 lf 1017,3 hPa 0,0 l/m 0 min 0 min 0 W/m 10,5 km/h (2 Bft)
19.06.2015 04:16 11,9 C 11,1 C 78 % 0 lf 1017,3 hPa 0,0 l/m 0 min 0 min 0 W/m 12,6 km/h (3 Bft)
19.06.2015 04:18 11,9 C 11,1 C 78 % 0 lf 1017,3 hPa 0,0 l/m 0 min 0 min 0 W/m 8,4 km/h (2 Bft)
19.06.2015 04:20 11,9 C 11,1 C 78 % 0 lf 1017,3 hPa 0,0 l/m 0 min 0 min 0 W/m 10,5 km/h (2 Bft)
19.06.2015 04:22 11,9 C 11,1 C 78 % 0 lf 1017,4 hPa 0,0 l/m 0 min 0 min 0 W/m 12,6 km/h (3 Bft)
19.06.2015 04:24 11,9 C 11,1 C 78 % 0 lf 1017,3 hPa 0,0 l/m 0 min 0 min 0 W/m 8,4 km/h (2 Bft)
19.06.2015 04:26 11,9 C 11,1 C 78 % 0 lf 1017,3 hPa 0,0 l/m 0 min 0 min 0 W/m 10,5 km/h (2 Bft)
19.06.2015 04:28 11,9 C 11,1 C 78 % 0 lf 1017,3 hPa 0,0 l/m 0 min 0 min 0 W/m 14,6 km/h (3 Bft)
19.06.2015 04:30 11,9 C 11,1 C 78 % 0 lf 1017,3 hPa 0,0 l/m 0 min 0 min 0 W/m 10,5 km/h (2 Bft)
19.06.2015 04:32 11,9 C 11,1 C 78 % 0 lf 1017,3 hPa 0,0 l/m 0 min 0 min 0 W/m 8,4 km/h (2 Bft)
19.06.2015 04:34 11,9 C 11,1 C 78 % 0 lf 1017,3 hPa 0,0 l/m 0 min 0 min 0 W/m 12,6 km/h (3 Bft)
19.06.2015 04:36 11,9 C 11,1 C 79 % 0 lf 1017,4 hPa 0,0 l/m 0 min 0 min 0 W/m 16,7 km/h (3 Bft)
19.06.2015 04:38 11,9 C 11,1 C 79 % 0 lf 1017,4 hPa 0,0 l/m 0 min 0 min 0 W/m 12,6 km/h (3 Bft)
19.06.2015 04:40 11,9 C 11,1 C 79 % 0 lf 1017,3 hPa 0,0 l/m 0 min 0 min 0 W/m 8,4 km/h (2 Bft)
19.06.2015 04:42 11,9 C 11,1 C 79 % 0 lf 1017,3 hPa 0,0 l/m 0 min 0 min 0 W/m 12,6 km/h (3 Bft)
19.06.2015 04:44 11,9 C 11,1 C 79 % 0 lf 1017,4 hPa 0,0 l/m 0 min 0 min 0 W/m 16,7 km/h (3 Bft)
19.06.2015 04:46 11,9 C 11,1 C 79 % 0 lf 1017,3 hPa 0,0 l/m 0 min 0 min 0 W/m 8,4 km/h (2 Bft)
19.06.2015 04:48 11,9 C 11,1 C 79 % 0 lf 1017,3 hPa 0,0 l/m 0 min 0 min 0 W/m 8,4 km/h (2 Bft)
19.06.2015 04:50 11,9 C 11,1 C 79 % 0 lf 1017,3 hPa 0,0 l/m 0 min 0 min 0 W/m 10,5 km/h (2 Bft)
19.06.2015 04:52 11,9 C 11,1 C 79 % 0 lf 1017,3 hPa 0,0 l/m 0 min 0 min 0 W/m 8,4 km/h (2 Bft)
19.06.2015 04:54 11,9 C 11,1 C 79 % 0 lf 1017,3 hPa 0,0 l/m 0 min 0 min 0 W/m 10,5 km/h (2 Bft)
19.06.2015 04:56 11,9 C 11,1 C 79 % 0 lf 1017,3 hPa 0,0 l/m 0 min 0 min 0 W/m 10,5 km/h (2 Bft)
19.06.2015 04:58 11,9 C 11,1 C 80 % 0 lf 1017,3 hPa 0,0 l/m 0 min 0 min 0 W/m 8,4 km/h (2 Bft)
19.06.2015 05:00 11,9 C 11,1 C 80 % 0 lf 1017,3 hPa 0,0 l/m 0 min 0 min 0 W/m 14,6 km/h (3 Bft)
19.06.2015 05:02 11,9 C 11,1 C 80 % 0 lf 1017,3 hPa 0,0 l/m 0 min 0 min 0 W/m 10,5 km/h (2 Bft)
19.06.2015 05:04 11,9 C 11,1 C 80 % 0 lf 1017,3 hPa 0,0 l/m 0 min 0 min 0 W/m 8,4 km/h (2 Bft)
19.06.2015 05:06 11,9 C 11,1 C 80 % 0 lf 1017,3 hPa 0,0 l/m 0 min 0 min 0 W/m 12,6 km/h (3 Bft)
19.06.2015 05:08 11,9 C 11,1 C 80 % 0 lf 1017,3 hPa 0,0 l/m 0 min 0 min 0 W/m 10,5 km/h (2 Bft)
19.06.2015 05:10 11,9 C 11,1 C 80 % 0 lf 1017,3 hPa 0,0 l/m 0 min 0 min 0 W/m 8,4 km/h (2 Bft)
19.06.2015 05:12 11,9 C 11,1 C 80 % 0 lf 1017,4 hPa 0,0 l/m 0 min 0 min 0 W/m 18,8 km/h (3 Bft)
19.06.2015 05:14 11,9 C 11,1 C 80 % 0 lf 1017,3 hPa 0,0 l/m 0 min 0 min 0 W/m 12,6 km/h (3 Bft)
19.06.2015 05:16 11,9 C 11,1 C 80 % 0 lf 1017,3 hPa 0,0 l/m 0 min 0 min 0 W/m 8,4 km/h (2 Bft)
19.06.2015 05:18 11,9 C 11,1 C 80 % 0 lf 1017,3 hPa 0,0 l/m 0 min 0 min 0 W/m 10,5 km/h (2 Bft)
19.06.2015 05:20 11,9 C 11,1 C 80 % 0 lf 1017,3 hPa 0,0 l/m 0 min 0 min 0 W/m 8,4 km/h (2 Bft)
19.06.2015 05:22 11,8 C 11,1 C 80 % 0 lf 1017,3 hPa 0,0 l/m 0 min 0 min 0 W/m 8,4 km/h (2 Bft)
19.06.2015 05:24 11,8 C 11,1 C 80 % 0 lf 1017,3 hPa 0,0 l/m 0 min 0 min 0 W/m 8,4 km/h (2 Bft)
19.06.2015 05:26 11,8 C 11,1 C 80 % 0 lf 1017,3 hPa 0,0 l/m 0 min 0 min 0 W/m 12,6 km/h (3 Bft)
19.06.2015 05:28 11,8 C 11,1 C 80 % 0 lf 1017,3 hPa 0,0 l/m 0 min 0 min 0 W/m 12,6 km/h (3 Bft)
19.06.2015 05:30 11,8 C 11,1 C 80 % 0 lf 1017,3 hPa 0,0 l/m 0 min 0 min 0 W/m 10,5 km/h (2 Bft)
19.06.2015 05:32 11,8 C 11,1 C 80 % 0 lf 1017,2 hPa 0,0 l/m 0 min 0 min 0 W/m 14,6 km/h (3 Bft)
19.06.2015 05:34 11,8 C 11,1 C 80 % 0 lf 1017,3 hPa 0,0 l/m 0 min 0 min 0 W/m 12,6 km/h (3 Bft)
19.06.2015 05:36 11,8 C 11,1 C 80 % 0 lf 1017,3 hPa 0,0 l/m 0 min 0 min 4 W/m 8,4 km/h (2 Bft)
19.06.2015 05:38 11,8 C 11,1 C 80 % 0 lf 1017,2 hPa 0,0 l/m 0 min 0 min 5 W/m 10,5 km/h (2 Bft)
19.06.2015 05:40 11,8 C 11,1 C 80 % 0 lf 1017,3 hPa 0,0 l/m 0 min 0 min 4 W/m 10,5 km/h (2 Bft)
19.06.2015 05:42 11,8 C 11,1 C 81 % 0 lf 1017,3 hPa 0,0 l/m 0 min 0 min 0 W/m 10,5 km/h (2 Bft)
19.06.2015 05:44 11,8 C 11,1 C 81 % 0 lf 1017,3 hPa 0,0 l/m 0 min 0 min 0 W/m 12,6 km/h (3 Bft)
19.06.2015 05:46 11,8 C 11,1 C 81 % 0 lf 1017,2 hPa 0,0 l/m 0 min 0 min 5 W/m 10,5 km/h (2 Bft)
19.06.2015 05:48 11,8 C 11,1 C 81 % 0 lf 1017,3 hPa 0,0 l/m 0 min 0 min 5 W/m 18,8 km/h (3 Bft)
19.06.2015 05:50 11,8 C 11,1 C 81 % 0 lf 1017,3 hPa 0,0 l/m 0 min 0 min 5 W/m 12,6 km/h (3 Bft)
19.06.2015 05:52 11,8 C 11,1 C 81 % 0 lf 1017,3 hPa 0,0 l/m 0 min 0 min 5 W/m 14,6 km/h (3 Bft)
19.06.2015 05:54 11,8 C 11,1 C 81 % 0 lf 1017,3 hPa 0,0 l/m 0 min 0 min 5 W/m 12,6 km/h (3 Bft)
19.06.2015 05:56 11,8 C 11,1 C 81 % 0 lf 1017,3 hPa 0,0 l/m 0 min 0 min 5 W/m 10,5 km/h (2 Bft)
19.06.2015 05:58 11,8 C 11,1 C 81 % 0 lf 1017,3 hPa 0,0 l/m 0 min 0 min 6 W/m 6,3 km/h (2 Bft)
19.06.2015 06:00 11,8 C 11,1 C 81 % 0 lf 1017,3 hPa 0,0 l/m 0 min 0 min 7 W/m 12,6 km/h (3 Bft)
19.06.2015 06:03 11,8 C 11,1 C 81 % 0 lf 1017,3 hPa 0,0 l/m 0 min 0 min 7 W/m 16,7 km/h (3 Bft)
19.06.2015 06:06 11,8 C 11,1 C 82 % 0 lf 1017,3 hPa 0,0 l/m 0 min 0 min 8 W/m 16,7 km/h (3 Bft)
19.06.2015 06:08 11,8 C 11,1 C 82 % 0 lf 1017,3 hPa 0,0 l/m 0 min 0 min 9 W/m 16,7 km/h (3 Bft)
19.06.2015 06:10 11,8 C 11,1 C 82 % 0 lf 1017,3 hPa 0,0 l/m 0 min 0 min 9 W/m 14,6 km/h (3 Bft)
19.06.2015 06:12 11,8 C 11,1 C 82 % 0 lf 1017,3 hPa 0,0 l/m 0 min 0 min 10 W/m 16,7 km/h (3 Bft)
19.06.2015 06:14 11,8 C 11,1 C 82 % 0 lf 1017,4 hPa 0,0 l/m 0 min 0 min 11 W/m 14,6 km/h (3 Bft)
19.06.2015 06:16 11,8 C 11,1 C 82 % 0 lf 1017,3 hPa 0,0 l/m 0 min 0 min 11 W/m 12,6 km/h (3 Bft)
19.06.2015 06:18 11,8 C 11,1 C 82 % 0 lf 1017,4 hPa 0,0 l/m 0 min 0 min 11 W/m 14,6 km/h (3 Bft)
19.06.2015 06:20 11,8 C 11,1 C 82 % 0 lf 1017,3 hPa 0,0 l/m 0 min 0 min 11 W/m 10,5 km/h (2 Bft)
19.06.2015 06:22 11,8 C 11,1 C 83 % 0 lf 1017,4 hPa 0,0 l/m 0 min 2 min 12 W/m 16,7 km/h (3 Bft)
19.06.2015 06:24 11,8 C 11,1 C 83 % 0 lf 1017,4 hPa 0,0 l/m 0 min 2 min 12 W/m 16,7 km/h (3 Bft)
19.06.2015 06:26 11,8 C 11,1 C 83 % 0 lf 1017,4 hPa 0,0 l/m 0 min 0 min 14 W/m 12,6 km/h (3 Bft)
19.06.2015 06:28 11,8 C 10,6 C 83 % 0 lf 1017,4 hPa 0,0 l/m 0 min 0 min 14 W/m 8,4 km/h (2 Bft)
19.06.2015 06:30 11,8 C 10,6 C 83 % 0 lf 1017,4 hPa 0,0 l/m 0 min 0 min 14 W/m 14,6 km/h (3 Bft)
19.06.2015 06:32 11,8 C 10,6 C 83 % 0 lf 1017,3 hPa 0,0 l/m 0 min 0 min 14 W/m 14,6 km/h (3 Bft)
19.06.2015 06:34 11,7 C 10,6 C 83 % 0 lf 1017,4 hPa 0,0 l/m 0 min 0 min 14 W/m 14,6 km/h (3 Bft)
19.06.2015 06:36 11,7 C 11,1 C 83 % 0 lf 1017,4 hPa 0,0 l/m 0 min 0 min 14 W/m 12,6 km/h (3 Bft)
19.06.2015 06:38 11,8 C 11,1 C 83 % 0 lf 1017,4 hPa 0,0 l/m 0 min 0 min 16 W/m 8,4 km/h (2 Bft)
19.06.2015 06:40 11,8 C 11,1 C 83 % 0 lf 1017,4 hPa 0,0 l/m 0 min 0 min 16 W/m 12,6 km/h (3 Bft)
19.06.2015 06:42 11,8 C 11,1 C 83 % 0 lf 1017,5 hPa 0,0 l/m 0 min 0 min 17 W/m 14,6 km/h (3 Bft)
19.06.2015 06:44 11,7 C 11,1 C 83 % 0 lf 1017,4 hPa 0,0 l/m 0 min 0 min 18 W/m 16,7 km/h (3 Bft)
19.06.2015 06:46 11,8 C 11,1 C 84 % 0 lf 1017,5 hPa 0,0 l/m 0 min 0 min 18 W/m 16,7 km/h (3 Bft)
19.06.2015 06:48 11,8 C 11,1 C 84 % 0 lf 1017,5 hPa 0,0 l/m 0 min 0 min 19 W/m 16,7 km/h (3 Bft)
19.06.2015 06:50 11,8 C 11,1 C 84 % 0 lf 1017,5 hPa 0,0 l/m 0 min 0 min 21 W/m 10,5 km/h (2 Bft)
19.06.2015 06:52 11,8 C 11,1 C 84 % 0 lf 1017,5 hPa 0,0 l/m 0 min 0 min 23 W/m 16,7 km/h (3 Bft)
19.06.2015 06:54 11,7 C 11,1 C 85 % 0 lf 1017,5 hPa 0,0 l/m 0 min 0 min 26 W/m 14,6 km/h (3 Bft)
19.06.2015 06:56 11,8 C 11,1 C 85 % 0 lf 1017,5 hPa 0,0 l/m 0 min 0 min 33 W/m 20,9 km/h (4 Bft)
19.06.2015 06:58 11,8 C 11,1 C 85 % 0 lf 1017,5 hPa 0,0 l/m 0 min 0 min 36 W/m 16,7 km/h (3 Bft)
19.06.2015 07:00 11,8 C 11,1 C 85 % 0 lf 1017,5 hPa 0,0 l/m 0 min 0 min 32 W/m 18,8 km/h (3 Bft)
19.06.2015 07:05 11,8 C 11,1 C 85 % 0 lf 1017,5 hPa 0,0 l/m 0 min 0 min 29 W/m 14,6 km/h (3 Bft)
19.06.2015 07:06 11,8 C 11,1 C 85 % 0 lf 1017,5 hPa 0,0 l/m 0 min 0 min 28 W/m 10,5 km/h (2 Bft)
19.06.2015 07:08 11,8 C 11,1 C 85 % 0 lf 1017,5 hPa 0,0 l/m 0 min 0 min 28 W/m 12,6 km/h (3 Bft)
19.06.2015 07:10 11,8 C 11,1 C 85 % 0 lf 1017,6 hPa 0,0 l/m 0 min 0 min 28 W/m 14,6 km/h (3 Bft)
19.06.2015 07:12 11,8 C 11,1 C 86 % 0 lf 1017,6 hPa 0,0 l/m 0 min 0 min 26 W/m 10,5 km/h (2 Bft)
19.06.2015 07:14 11,8 C 11,1 C 86 % 0 lf 1017,6 hPa 0,0 l/m 0 min 0 min 28 W/m 14,6 km/h (3 Bft)
19.06.2015 07:16 11,8 C 11,1 C 86 % 0 lf 1017,5 hPa 0,0 l/m 0 min 0 min 28 W/m 12,6 km/h (3 Bft)
19.06.2015 07:18 11,8 C 11,1 C 86 % 0 lf 1017,6 hPa 0,0 l/m 0 min 0 min 25 W/m 18,8 km/h (3 Bft)
19.06.2015 07:20 11,8 C 11,1 C 86 % 0 lf 1017,6 hPa 0,0 l/m 0 min 0 min 25 W/m 20,9 km/h (4 Bft)
19.06.2015 07:22 11,8 C 11,1 C 86 % 0 lf 1017,5 hPa 0,0 l/m 0 min 0 min 26 W/m 16,7 km/h (3 Bft)
19.06.2015 07:24 11,8 C 11,1 C 86 % 0 lf 1017,6 hPa 0,0 l/m 0 min 0 min 24 W/m 18,8 km/h (3 Bft)
19.06.2015 07:26 11,8 C 11,1 C 86 % 0 lf 1017,6 hPa 0,0 l/m 0 min 0 min 32 W/m 12,6 km/h (3 Bft)
19.06.2015 07:28 11,8 C 11,1 C 86 % 0 lf 1017,6 hPa 0,0 l/m 0 min 0 min 40 W/m 10,5 km/h (2 Bft)
19.06.2015 07:30 11,8 C 11,1 C 86 % 0 lf 1017,6 hPa 0,0 l/m 0 min 0 min 47 W/m 12,6 km/h (3 Bft)
19.06.2015 07:32 11,8 C 11,1 C 87 % 0 lf 1017,6 hPa 0,0 l/m 0 min 0 min 51 W/m 18,8 km/h (3 Bft)
19.06.2015 07:34 11,8 C 11,1 C 87 % 0 lf 1017,7 hPa 0,0 l/m 0 min 0 min 45 W/m 14,6 km/h (3 Bft)
19.06.2015 07:36 11,8 C 11,1 C 87 % 0 lf 1017,6 hPa 0,0 l/m 0 min 0 min 46 W/m 14,6 km/h (3 Bft)
19.06.2015 07:38 11,8 C 11,1 C 87 % 0 lf 1017,6 hPa 0,0 l/m 0 min 0 min 49 W/m 12,6 km/h (3 Bft)
19.06.2015 07:40 11,8 C 11,1 C 87 % 0 lf 1017,7 hPa 0,0 l/m 0 min 0 min 47 W/m 14,6 km/h (3 Bft)
19.06.2015 07:42 11,8 C 11,1 C 87 % 0 lf 1017,7 hPa 0,0 l/m 0 min 0 min 51 W/m 16,7 km/h (3 Bft)
19.06.2015 07:44 11,8 C 11,1 C 87 % 0 lf 1017,7 hPa 0,0 l/m 0 min 0 min 58 W/m 16,7 km/h (3 Bft)
19.06.2015 07:46 11,8 C 11,1 C 87 % 1 lf 1017,7 hPa 0,0 l/m 0 min 0 min 48 W/m 8,4 km/h (2 Bft)
19.06.2015 07:48 11,8 C 11,1 C 87 % 1 lf 1017,8 hPa 0,0 l/m 0 min 0 min 42 W/m 12,6 km/h (3 Bft)
19.06.2015 07:50 11,8 C 11,1 C 88 % 1 lf 1017,6 hPa 0,0 l/m 0 min 0 min 51 W/m 14,6 km/h (3 Bft)
19.06.2015 07:52 11,8 C 11,1 C 88 % 3 lf 1017,7 hPa 0,0 l/m 0 min 0 min 48 W/m 18,8 km/h (3 Bft)
19.06.2015 07:54 11,8 C 11,1 C 88 % 3 lf 1017,8 hPa 0,0 l/m 0 min 2 min 51 W/m 10,5 km/h (2 Bft)
19.06.2015 07:56 11,8 C 11,1 C 88 % 1 lf 1017,8 hPa 0,0 l/m 0 min 0 min 57 W/m 8,4 km/h (2 Bft)
19.06.2015 07:58 11,8 C 10,6 C 88 % 2 lf 1017,8 hPa 0,0 l/m 0 min 0 min 55 W/m 12,6 km/h (3 Bft)
19.06.2015 08:00 11,9 C 10,6 C 88 % 2 lf 1017,8 hPa 0,0 l/m 0 min 0 min 56 W/m 10,5 km/h (2 Bft)
19.06.2015 08:02 11,9 C 11,1 C 88 % 1 lf 1017,8 hPa 0,0 l/m 0 min 0 min 58 W/m 12,6 km/h (3 Bft)
19.06.2015 08:04 11,9 C 10,6 C 88 % 2 lf 1017,8 hPa 0,0 l/m 0 min 2 min 56 W/m 12,6 km/h (3 Bft)
19.06.2015 08:06 11,9 C 10,6 C 89 % 1 lf 1017,9 hPa 0,0 l/m 0 min 2 min 64 W/m 16,7 km/h (3 Bft)
19.06.2015 08:08 11,9 C 10,6 C 89 % 1 lf 1017,8 hPa 0,0 l/m 0 min 0 min 66 W/m 10,5 km/h (2 Bft)
19.06.2015 08:10 11,8 C 10,6 C 89 % 1 lf 1017,9 hPa 0,0 l/m 0 min 0 min 59 W/m 10,5 km/h (2 Bft)
19.06.2015 08:12 11,8 C 11,1 C 89 % 1 lf 1017,9 hPa 0,0 l/m 0 min 0 min 66 W/m 14,6 km/h (3 Bft)
19.06.2015 08:14 11,8 C 11,1 C 89 % 2 lf 1017,9 hPa 0,0 l/m 0 min 0 min 73 W/m 16,7 km/h (3 Bft)
19.06.2015 08:16 11,8 C 11,1 C 89 % 1 lf 1017,9 hPa 0,0 l/m 0 min 0 min 77 W/m 20,9 km/h (4 Bft)
19.06.2015 08:18 11,8 C 11,1 C 90 % 2 lf 1017,8 hPa 0,0 l/m 0 min 0 min 71 W/m 12,6 km/h (3 Bft)
19.06.2015 08:20 11,8 C 11,1 C 90 % 3 lf 1017,9 hPa 0,0 l/m 0 min 0 min 74 W/m 8,4 km/h (2 Bft)
19.06.2015 08:22 11,8 C 11,1 C 90 % 9 lf 1017,8 hPa 0,0 l/m 0 min 2 min 85 W/m 20,9 km/h (4 Bft)
19.06.2015 08:24 11,9 C 11,1 C 90 % 4 lf 1017,8 hPa 0,0 l/m 0 min 0 min 91 W/m 16,7 km/h (3 Bft)
19.06.2015 08:26 11,9 C 11,1 C 90 % 3 lf 1017,8 hPa 0,0 l/m 0 min 0 min 95 W/m 18,8 km/h (3 Bft)
19.06.2015 08:28 11,9 C 11,1 C 90 % 2 lf 1017,8 hPa 0,0 l/m 0 min 0 min 96 W/m 16,7 km/h (3 Bft)
19.06.2015 08:30 11,9 C 11,1 C 90 % 1 lf 1017,8 hPa 0,0 l/m 0 min 0 min 97 W/m 14,6 km/h (3 Bft)
19.06.2015 08:33 11,9 C 11,1 C 90 % 1 lf 1017,9 hPa 0,0 l/m 0 min 0 min 94 W/m 16,7 km/h (3 Bft)
19.06.2015 08:34 11,9 C 11,1 C 90 % 1 lf 1017,9 hPa 0,0 l/m 0 min 0 min 92 W/m 20,9 km/h (4 Bft)
19.06.2015 08:38 11,9 C 11,1 C 91 % 13 lf 1017,8 hPa 0,0 l/m 0 min 2 min 108 W/m 16,7 km/h (3 Bft)
19.06.2015 08:39 11,9 C 11,1 C 91 % 15 lf 1017,9 hPa 0,0 l/m 0 min 1 min 110 W/m 10,5 km/h (2 Bft)
19.06.2015 08:40 11,9 C 11,1 C 91 % 15 lf 1017,9 hPa 0,0 l/m 0 min 1 min 100 W/m 8,4 km/h (2 Bft)
19.06.2015 08:44 11,9 C 10,6 C 91 % 15 lf 1017,9 hPa 0,0 l/m 0 min 2 min 112 W/m 14,6 km/h (3 Bft)
19.06.2015 08:46 11,9 C 10,6 C 91 % 15 lf 1017,9 hPa 0,0 l/m 0 min 2 min 128 W/m 12,6 km/h (3 Bft)
19.06.2015 08:48 11,9 C 10,6 C 91 % 15 lf 1017,9 hPa 0,0 l/m 0 min 2 min 129 W/m 14,6 km/h (3 Bft)
19.06.2015 08:50 11,9 C 10,6 C 91 % 15 lf 1017,9 hPa 0,0 l/m 0 min 2 min 129 W/m 18,8 km/h (3 Bft)
19.06.2015 08:52 11,9 C 10,6 C 91 % 15 lf 1017,9 hPa 0,0 l/m 0 min 2 min 118 W/m 10,5 km/h (2 Bft)
19.06.2015 08:54 12,0 C 10,6 C 91 % 15 lf 1017,9 hPa 0,0 l/m 0 min 2 min 102 W/m 23,0 km/h (4 Bft)
19.06.2015 08:56 12,0 C 10,6 C 91 % 15 lf 1017,9 hPa 0,0 l/m 0 min 2 min 93 W/m 16,7 km/h (3 Bft)
19.06.2015 08:58 11,9 C 10,6 C 91 % 15 lf 1017,8 hPa 0,2 l/m 0 min 2 min 82 W/m 12,6 km/h (3 Bft)
19.06.2015 09:00 11,9 C 10,6 C 92 % 15 lf 1017,8 hPa 0,0 l/m 0 min 2 min 84 W/m 12,6 km/h (3 Bft)
19.06.2015 09:02 11,9 C 10,6 C 92 % 15 lf 1017,8 hPa 0,0 l/m 0 min 0 min 104 W/m 14,6 km/h (3 Bft)
19.06.2015 09:04 12,0 C 10,6 C 92 % 15 lf 1017,8 hPa 0,0 l/m 0 min 2 min 131 W/m 16,7 km/h (3 Bft)
19.06.2015 09:06 11,9 C 10,6 C 92 % 15 lf 1017,8 hPa 0,0 l/m 0 min 2 min 138 W/m 12,6 km/h (3 Bft)
19.06.2015 09:08 12,0 C 11,1 C 92 % 15 lf 1017,9 hPa 0,0 l/m 0 min 0 min 134 W/m 14,6 km/h (3 Bft)
19.06.2015 09:10 12,0 C 10,6 C 92 % 15 lf 1017,8 hPa 0,0 l/m 0 min 0 min 142 W/m 10,5 km/h (2 Bft)
19.06.2015 09:12 12,0 C 11,1 C 92 % 15 lf 1017,8 hPa 0,0 l/m 0 min 0 min 161 W/m 10,5 km/h (2 Bft)
19.06.2015 09:14 12,0 C 11,1 C 93 % 15 lf 1017,8 hPa 0,0 l/m 0 min 0 min 152 W/m 12,6 km/h (3 Bft)
19.06.2015 09:16 12,0 C 11,1 C 93 % 15 lf 1017,8 hPa 0,0 l/m 0 min 0 min 157 W/m 16,7 km/h (3 Bft)
19.06.2015 09:18 12,1 C 11,1 C 93 % 15 lf 1017,8 hPa 0,0 l/m 0 min 0 min 183 W/m 12,6 km/h (3 Bft)
19.06.2015 09:20 12,1 C 11,1 C 93 % 15 lf 1017,8 hPa 0,0 l/m 0 min 0 min 184 W/m 12,6 km/h (3 Bft)
19.06.2015 09:22 12,1 C 11,1 C 93 % 15 lf 1017,8 hPa 0,0 l/m 0 min 0 min 149 W/m 14,6 km/h (3 Bft)
19.06.2015 09:24 12,1 C 11,1 C 93 % 15 lf 1017,7 hPa 0,0 l/m 0 min 0 min 128 W/m 18,8 km/h (3 Bft)
19.06.2015 09:26 12,1 C 11,1 C 93 % 15 lf 1017,8 hPa 0,0 l/m 0 min 0 min 105 W/m 6,3 km/h (2 Bft)
19.06.2015 09:28 12,1 C 11,1 C 93 % 15 lf 1017,8 hPa 0,0 l/m 0 min 0 min 95 W/m 8,4 km/h (2 Bft)
19.06.2015 09:30 12,1 C 11,1 C 93 % 15 lf 1017,8 hPa 0,0 l/m 0 min 0 min 93 W/m 10,5 km/h (2 Bft)
19.06.2015 09:32 12,1 C 11,1 C 93 % 15 lf 1017,9 hPa 0,0 l/m 0 min 0 min 78 W/m 12,6 km/h (3 Bft)
19.06.2015 09:34 12,1 C 11,1 C 93 % 15 lf 1017,8 hPa 0,0 l/m 0 min 0 min 91 W/m 18,8 km/h (3 Bft)
19.06.2015 09:36 12,2 C 11,1 C 93 % 15 lf 1017,8 hPa 0,0 l/m 0 min 0 min 106 W/m 12,6 km/h (3 Bft)
19.06.2015 09:38 12,2 C 11,1 C 93 % 15 lf 1017,9 hPa 0,0 l/m 0 min 0 min 100 W/m 14,6 km/h (3 Bft)
19.06.2015 09:40 12,2 C 11,1 C 93 % 15 lf 1017,7 hPa 0,0 l/m 0 min 0 min 95 W/m 20,9 km/h (4 Bft)
19.06.2015 09:42 12,1 C 10,6 C 93 % 15 lf 1017,8 hPa 0,0 l/m 0 min 0 min 86 W/m 18,8 km/h (3 Bft)
19.06.2015 09:44 12,1 C 10,6 C 93 % 15 lf 1017,8 hPa 0,0 l/m 0 min 0 min 83 W/m 16,7 km/h (3 Bft)
19.06.2015 09:46 12,1 C 11,1 C 93 % 15 lf 1017,8 hPa 0,0 l/m 0 min 0 min 91 W/m 12,6 km/h (3 Bft)
19.06.2015 09:48 12,1 C 11,1 C 93 % 15 lf 1017,8 hPa 0,0 l/m 0 min 2 min 100 W/m 14,6 km/h (3 Bft)
19.06.2015 09:50 12,2 C 11,1 C 93 % 15 lf 1017,8 hPa 0,0 l/m 0 min 0 min 119 W/m 10,5 km/h (2 Bft)
19.06.2015 09:52 12,2 C 11,1 C 93 % 15 lf 1017,9 hPa 0,0 l/m 0 min 0 min 144 W/m 12,6 km/h (3 Bft)
19.06.2015 09:54 12,2 C 11,1 C 93 % 15 lf 1017,8 hPa 0,0 l/m 0 min 0 min 143 W/m 12,6 km/h (3 Bft)
19.06.2015 09:56 12,2 C 11,1 C 93 % 15 lf 1017,9 hPa 0,0 l/m 0 min 2 min 122 W/m 8,4 km/h (2 Bft)
19.06.2015 09:58 12,3 C 11,1 C 93 % 15 lf 1017,9 hPa 0,0 l/m 0 min 2 min 112 W/m 18,8 km/h (3 Bft)
19.06.2015 10:00 12,3 C 11,1 C 93 % 15 lf 1017,8 hPa 0,0 l/m 0 min 0 min 89 W/m 16,7 km/h (3 Bft)
19.06.2015 10:02 12,3 C 11,1 C 93 % 15 lf 1017,9 hPa 0,0 l/m 0 min 0 min 71 W/m 20,9 km/h (4 Bft)
19.06.2015 10:04 12,3 C 11,1 C 93 % 15 lf 1017,9 hPa 0,0 l/m 0 min 0 min 107 W/m 14,6 km/h (3 Bft)
19.06.2015 10:06 12,3 C 11,1 C 93 % 15 lf 1017,8 hPa 0,0 l/m 0 min 0 min 113 W/m 10,5 km/h (2 Bft)
19.06.2015 10:08 12,3 C 11,1 C 93 % 15 lf 1017,9 hPa 0,0 l/m 0 min 0 min 92 W/m 10,5 km/h (2 Bft)
19.06.2015 10:10 12,3 C 11,1 C 93 % 15 lf 1017,9 hPa 0,0 l/m 0 min 0 min 91 W/m 10,5 km/h (2 Bft)
19.06.2015 10:12 12,3 C 11,1 C 93 % 15 lf 1017,9 hPa 0,0 l/m 0 min 0 min 108 W/m 14,6 km/h (3 Bft)
19.06.2015 10:14 12,3 C 11,7 C 93 % 15 lf 1017,9 hPa 0,0 l/m 0 min 0 min 185 W/m 14,6 km/h (3 Bft)
19.06.2015 10:16 12,4 C 11,7 C 93 % 13 lf 1017,8 hPa 0,0 l/m 0 min 0 min 197 W/m 16,7 km/h (3 Bft)
19.06.2015 10:18 12,4 C 11,7 C 93 % 7 lf 1017,8 hPa 0,0 l/m 0 min 0 min 191 W/m 16,7 km/h (3 Bft)
19.06.2015 10:20 12,4 C 11,7 C 93 % 2 lf 1017,8 hPa 0,0 l/m 0 min 0 min 189 W/m 12,6 km/h (3 Bft)
19.06.2015 10:22 12,5 C 11,7 C 93 % 0 lf 1017,8 hPa 0,0 l/m 0 min 0 min 155 W/m 20,9 km/h (4 Bft)
19.06.2015 10:24 12,5 C 11,7 C 93 % 0 lf 1017,9 hPa 0,0 l/m 0 min 0 min 141 W/m 14,6 km/h (3 Bft)
19.06.2015 10:26 12,6 C 11,7 C 93 % 0 lf 1017,9 hPa 0,0 l/m 0 min 0 min 165 W/m 12,6 km/h (3 Bft)
19.06.2015 10:28 12,6 C 11,7 C 93 % 0 lf 1017,9 hPa 0,0 l/m 0 min 0 min 187 W/m 12,6 km/h (3 Bft)
19.06.2015 10:30 12,6 C 11,7 C 93 % 0 lf 1017,8 hPa 0,0 l/m 0 min 0 min 199 W/m 16,7 km/h (3 Bft)
19.06.2015 10:32 12,6 C 11,7 C 93 % 0 lf 1017,7 hPa 0,0 l/m 0 min 0 min 205 W/m 16,7 km/h (3 Bft)
19.06.2015 10:34 12,7 C 11,7 C 92 % 0 lf 1017,8 hPa 0,0 l/m 0 min 0 min 224 W/m 16,7 km/h (3 Bft)
19.06.2015 10:36 12,7 C 11,7 C 92 % 0 lf 1017,7 hPa 0,0 l/m 0 min 0 min 203 W/m 14,6 km/h (3 Bft)
19.06.2015 10:38 12,7 C 12,2 C 92 % 0 lf 1017,7 hPa 0,0 l/m 0 min 0 min 219 W/m 14,6 km/h (3 Bft)
19.06.2015 10:40 12,8 C 12,2 C 92 % 0 lf 1017,6 hPa 0,0 l/m 0 min 0 min 260 W/m 23,0 km/h (4 Bft)
19.06.2015 10:42 12,8 C 12,2 C 92 % 0 lf 1017,7 hPa 0,0 l/m 0 min 0 min 251 W/m 16,7 km/h (3 Bft)
19.06.2015 10:44 12,9 C 12,2 C 92 % 0 lf 1017,7 hPa 0,0 l/m 0 min 0 min 265 W/m 23,0 km/h (4 Bft)
19.06.2015 10:46 13,0 C 12,2 C 92 % 0 lf 1017,7 hPa 0,0 l/m 0 min 0 min 306 W/m 14,6 km/h (3 Bft)
19.06.2015 10:48 13,1 C 12,8 C 91 % 0 lf 1017,7 hPa 0,0 l/m 2 min 0 min 390 W/m 18,8 km/h (3 Bft)
19.06.2015 10:50 13,1 C 12,8 C 91 % 0 lf 1017,6 hPa 0,0 l/m 0 min 0 min 327 W/m 20,9 km/h (4 Bft)
19.06.2015 10:52 13,2 C 12,8 C 91 % 0 lf 1017,7 hPa 0,0 l/m 0 min 0 min 302 W/m 20,9 km/h (4 Bft)
19.06.2015 10:54 13,2 C 12,8 C 91 % 0 lf 1017,6 hPa 0,0 l/m 0 min 0 min 293 W/m 16,7 km/h (3 Bft)
19.06.2015 10:56 13,2 C 12,2 C 90 % 0 lf 1017,7 hPa 0,0 l/m 0 min 0 min 266 W/m 16,7 km/h (3 Bft)
19.06.2015 10:58 13,3 C 12,2 C 90 % 0 lf 1017,6 hPa 0,0 l/m 0 min 0 min 240 W/m 16,7 km/h (3 Bft)
19.06.2015 11:00 13,4 C 12,2 C 90 % 0 lf 1017,7 hPa 0,0 l/m 0 min 0 min 225 W/m 18,8 km/h (3 Bft)
19.06.2015 11:02 13,4 C 12,8 C 90 % 0 lf 1017,7 hPa 0,0 l/m 0 min 0 min 246 W/m 12,6 km/h (3 Bft)
19.06.2015 11:04 13,5 C 12,8 C 89 % 0 lf 1017,7 hPa 0,0 l/m 0 min 0 min 290 W/m 25,1 km/h (4 Bft)
19.06.2015 11:06 13,6 C 12,8 C 89 % 0 lf 1017,7 hPa 0,0 l/m 0 min 0 min 227 W/m 16,7 km/h (3 Bft)
19.06.2015 11:08 13,6 C 12,8 C 89 % 0 lf 1017,6 hPa 0,0 l/m 0 min 0 min 202 W/m 16,7 km/h (3 Bft)
19.06.2015 11:10 13,7 C 12,8 C 89 % 0 lf 1017,6 hPa 0,0 l/m 0 min 0 min 316 W/m 16,7 km/h (3 Bft)
19.06.2015 11:12 13,7 C 13,3 C 89 % 0 lf 1017,6 hPa 0,0 l/m 2 min 0 min 404 W/m 14,6 km/h (3 Bft)
19.06.2015 11:14 13,8 C 13,9 C 88 % 0 lf 1017,5 hPa 0,0 l/m 2 min 0 min 420 W/m 18,8 km/h (3 Bft)
19.06.2015 11:16 13,9 C 14,4 C 88 % 0 lf 1017,5 hPa 0,0 l/m 2 min 0 min 448 W/m 14,6 km/h (3 Bft)
19.06.2015 11:18 14,1 C 14,4 C 88 % 0 lf 1017,5 hPa 0,0 l/m 2 min 0 min 767 W/m 20,9 km/h (4 Bft)
19.06.2015 11:20 14,2 C 13,9 C 88 % 0 lf 1017,5 hPa 0,0 l/m 0 min 0 min 318 W/m 20,9 km/h (4 Bft)
19.06.2015 11:22 14,2 C 13,3 C 87 % 0 lf 1017,6 hPa 0,0 l/m 0 min 0 min 308 W/m 23,0 km/h (4 Bft)
19.06.2015 11:24 14,2 C 13,9 C 86 % 0 lf 1017,5 hPa 0,0 l/m 0 min 0 min 334 W/m 18,8 km/h (3 Bft)
19.06.2015 11:26 14,2 C 15,0 C 86 % 0 lf 1017,5 hPa 0,0 l/m 0 min 0 min 364 W/m 14,6 km/h (3 Bft)
19.06.2015 11:28 14,4 C 17,2 C 86 % 0 lf 1017,5 hPa 0,0 l/m 0 min 0 min 364 W/m 20,9 km/h (4 Bft)
19.06.2015 11:30 14,7 C 16,7 C 87 % 0 lf 1017,5 hPa 0,0 l/m 0 min 0 min 378 W/m 31,4 km/h (5 Bft)
19.06.2015 11:32 14,9 C 17,2 C 86 % 0 lf 1017,5 hPa 0,0 l/m 2 min 0 min 614 W/m 27,2 km/h (4 Bft)
19.06.2015 11:34 15,1 C 16,1 C 84 % 0 lf 1017,6 hPa 0,0 l/m 2 min 0 min 981 W/m 27,2 km/h (4 Bft)
19.06.2015 11:36 15,2 C 15,6 C 83 % 0 lf 1017,6 hPa 0,0 l/m 0 min 0 min 382 W/m 18,8 km/h (3 Bft)
19.06.2015 11:38 15,3 C 15,0 C 83 % 0 lf 1017,6 hPa 0,0 l/m 0 min 0 min 364 W/m 20,9 km/h (4 Bft)
19.06.2015 11:40 15,5 C 15,6 C 83 % 0 lf 1017,6 hPa 0,0 l/m 0 min 0 min 355 W/m 18,8 km/h (3 Bft)
19.06.2015 11:42 15,6 C 16,1 C 82 % 0 lf 1017,6 hPa 0,0 l/m 2 min 0 min 761 W/m 18,8 km/h (3 Bft)
19.06.2015 11:44 15,6 C 15,6 C 81 % 0 lf 1017,6 hPa 0,0 l/m 2 min 0 min 528 W/m 18,8 km/h (3 Bft)
19.06.2015 11:46 15,7 C 17,2 C 81 % 0 lf 1017,6 hPa 0,0 l/m 0 min 0 min 334 W/m 23,0 km/h (4 Bft)
19.06.2015 11:48 15,8 C 17,8 C 80 % 0 lf 1017,6 hPa 0,0 l/m 2 min 0 min 596 W/m 20,9 km/h (4 Bft)
19.06.2015 11:50 15,9 C 16,7 C 79 % 0 lf 1017,6 hPa 0,0 l/m 0 min 0 min 375 W/m 20,9 km/h (4 Bft)
19.06.2015 11:52 15,9 C 16,1 C 78 % 0 lf 1017,6 hPa 0,0 l/m 0 min 0 min 255 W/m 20,9 km/h (4 Bft)
19.06.2015 11:54 15,9 C 15,6 C 78 % 0 lf 1017,6 hPa 0,0 l/m 0 min 0 min 236 W/m 14,6 km/h (3 Bft)
19.06.2015 11:56 15,9 C 15,0 C 78 % 0 lf 1017,6 hPa 0,0 l/m 0 min 0 min 237 W/m 20,9 km/h (4 Bft)
19.06.2015 11:58 15,9 C 15,0 C 78 % 0 lf 1017,6 hPa 0,0 l/m 0 min 0 min 293 W/m 16,7 km/h (3 Bft)
19.06.2015 12:00 15,8 C 15,0 C 78 % 0 lf 1017,6 hPa 0,0 l/m 0 min 0 min 332 W/m 31,4 km/h (5 Bft)
19.06.2015 12:02 15,8 C 15,0 C 77 % 0 lf 1017,6 hPa 0,0 l/m 0 min 0 min 319 W/m 25,1 km/h (4 Bft)
19.06.2015 12:05 15,7 C 15,0 C 78 % 0 lf 1017,6 hPa 0,0 l/m 0 min 0 min 255 W/m 27,2 km/h (4 Bft)
19.06.2015 12:06 15,7 C 15,0 C 78 % 0 lf 1017,6 hPa 0,0 l/m 0 min 0 min 270 W/m 27,2 km/h (4 Bft)
19.06.2015 12:08 15,6 C 15,0 C 78 % 0 lf 1017,6 hPa 0,0 l/m 0 min 0 min 232 W/m 20,9 km/h (4 Bft)
19.06.2015 12:10 15,6 C 14,4 C 78 % 0 lf 1017,6 hPa 0,0 l/m 0 min 0 min 203 W/m 18,8 km/h (3 Bft)
19.06.2015 12:12 15,6 C 14,4 C 78 % 0 lf 1017,6 hPa 0,0 l/m 0 min 0 min 182 W/m 16,7 km/h (3 Bft)
19.06.2015 12:14 15,6 C 14,4 C 79 % 0 lf 1017,6 hPa 0,0 l/m 0 min 0 min 185 W/m 16,7 km/h (3 Bft)
19.06.2015 12:16 15,6 C 14,4 C 78 % 0 lf 1017,6 hPa 0,0 l/m 0 min 0 min 167 W/m 20,9 km/h (4 Bft)
19.06.2015 12:18 15,5 C 14,4 C 78 % 1 lf 1017,7 hPa 0,0 l/m 0 min 0 min 121 W/m 20,9 km/h (4 Bft)
19.06.2015 12:20 15,4 C 13,9 C 78 % 1 lf 1017,7 hPa 0,0 l/m 0 min 2 min 88 W/m 16,7 km/h (3 Bft)
19.06.2015 12:22 15,3 C 13,3 C 78 % 15 lf 1017,8 hPa 0,0 l/m 0 min 2 min 77 W/m 20,9 km/h (4 Bft)
19.06.2015 12:24 15,3 C 12,8 C 78 % 15 lf 1017,8 hPa 0,0 l/m 0 min 2 min 101 W/m 23,0 km/h (4 Bft)
19.06.2015 12:26 15,2 C 12,2 C 80 % 15 lf 1017,8 hPa 0,2 l/m 0 min 2 min 119 W/m 20,9 km/h (4 Bft)
19.06.2015 12:28 15,2 C 12,2 C 81 % 15 lf 1017,8 hPa 0,0 l/m 0 min 2 min 127 W/m 18,8 km/h (3 Bft)
19.06.2015 12:30 15,1 C 11,7 C 81 % 15 lf 1017,9 hPa 0,0 l/m 0 min 2 min 136 W/m 23,0 km/h (4 Bft)
19.06.2015 12:32 14,9 C 11,7 C 82 % 15 lf 1017,9 hPa 0,0 l/m 0 min 2 min 146 W/m 20,9 km/h (4 Bft)
19.06.2015 12:34 14,8 C 11,7 C 82 % 15 lf 1017,9 hPa 0,0 l/m 0 min 2 min 145 W/m 16,7 km/h (3 Bft)
19.06.2015 12:36 14,7 C 11,7 C 83 % 15 lf 1017,9 hPa 0,0 l/m 0 min 2 min 133 W/m 8,4 km/h (2 Bft)
19.06.2015 12:38 14,7 C 11,7 C 83 % 15 lf 1017,9 hPa 0,0 l/m 0 min 2 min 103 W/m 10,5 km/h (2 Bft)
19.06.2015 12:40 14,6 C 11,7 C 84 % 15 lf 1017,9 hPa 0,2 l/m 0 min 2 min 84 W/m 10,5 km/h (2 Bft)
19.06.2015 12:42 14,6 C 11,7 C 84 % 15 lf 1017,9 hPa 0,0 l/m 0 min 2 min 97 W/m 14,6 km/h (3 Bft)
19.06.2015 12:44 14,5 C 11,7 C 84 % 15 lf 1018,0 hPa 0,0 l/m 0 min 2 min 106 W/m 12,6 km/h (3 Bft)
19.06.2015 12:46 14,4 C 11,7 C 85 % 15 lf 1018,0 hPa 0,0 l/m 0 min 0 min 131 W/m 14,6 km/h (3 Bft)
19.06.2015 12:48 14,4 C 11,7 C 85 % 15 lf 1018,0 hPa 0,0 l/m 0 min 0 min 159 W/m 12,6 km/h (3 Bft)
19.06.2015 12:50 14,3 C 12,2 C 86 % 15 lf 1018,0 hPa 0,0 l/m 0 min 0 min 174 W/m 4,2 km/h (1 Bft)
19.06.2015 12:52 14,3 C 12,2 C 86 % 15 lf 1018,0 hPa 0,0 l/m 0 min 0 min 176 W/m 10,5 km/h (2 Bft)
19.06.2015 12:54 14,2 C 12,2 C 86 % 15 lf 1017,9 hPa 0,0 l/m 0 min 0 min 177 W/m 8,4 km/h (2 Bft)
19.06.2015 12:56 14,2 C 12,2 C 87 % 15 lf 1018,0 hPa 0,0 l/m 0 min 0 min 191 W/m 10,5 km/h (2 Bft)
19.06.2015 12:58 14,2 C 12,8 C 87 % 15 lf 1017,9 hPa 0,0 l/m 0 min 0 min 235 W/m 6,3 km/h (2 Bft)
19.06.2015 13:00 14,2 C 12,8 C 87 % 15 lf 1017,9 hPa 0,0 l/m 0 min 0 min 244 W/m 12,6 km/h (3 Bft)
19.06.2015 13:02 14,2 C 12,8 C 88 % 15 lf 1017,9 hPa 0,0 l/m 0 min 0 min 209 W/m 10,5 km/h (2 Bft)
19.06.2015 13:04 14,2 C 12,2 C 88 % 15 lf 1018,0 hPa 0,0 l/m 0 min 0 min 155 W/m 8,4 km/h (2 Bft)
19.06.2015 13:06 14,2 C 12,2 C 88 % 15 lf 1017,9 hPa 0,0 l/m 0 min 0 min 121 W/m 10,5 km/h (2 Bft)
19.06.2015 13:08 14,2 C 12,2 C 88 % 15 lf 1017,9 hPa 0,0 l/m 0 min 0 min 113 W/m 8,4 km/h (2 Bft)
19.06.2015 13:10 14,2 C 12,2 C 88 % 15 lf 1017,9 hPa 0,0 l/m 0 min 0 min 114 W/m 8,4 km/h (2 Bft)
19.06.2015 13:12 14,2 C 12,2 C 88 % 15 lf 1017,8 hPa 0,0 l/m 0 min 0 min 121 W/m 10,5 km/h (2 Bft)
19.06.2015 13:14 14,2 C 12,2 C 88 % 15 lf 1017,8 hPa 0,0 l/m 0 min 0 min 153 W/m 10,5 km/h (2 Bft)
19.06.2015 13:16 14,2 C 12,8 C 88 % 15 lf 1017,8 hPa 0,0 l/m 0 min 0 min 179 W/m 12,6 km/h (3 Bft)
19.06.2015 13:18 14,2 C 12,8 C 89 % 15 lf 1017,8 hPa 0,0 l/m 0 min 0 min 163 W/m 8,4 km/h (2 Bft)
19.06.2015 13:20 14,2 C 12,2 C 89 % 15 lf 1017,9 hPa 0,0 l/m 0 min 0 min 120 W/m 10,5 km/h (2 Bft)
19.06.2015 13:22 14,2 C 12,2 C 89 % 15 lf 1017,9 hPa 0,0 l/m 0 min 0 min 89 W/m 10,5 km/h (2 Bft)
19.06.2015 13:24 14,2 C 12,2 C 88 % 15 lf 1017,9 hPa 0,0 l/m 0 min 0 min 56 W/m 12,6 km/h (3 Bft)
19.06.2015 13:26 14,2 C 12,2 C 88 % 15 lf 1017,8 hPa 0,0 l/m 0 min 2 min 43 W/m 8,4 km/h (2 Bft)
19.06.2015 13:28 14,2 C 11,7 C 88 % 15 lf 1017,8 hPa 0,0 l/m 0 min 2 min 34 W/m 6,3 km/h (2 Bft)
19.06.2015 13:30 14,2 C 11,7 C 88 % 15 lf 1017,9 hPa 0,2 l/m 0 min 2 min 34 W/m 6,3 km/h (2 Bft)
19.06.2015 13:32 14,2 C 11,7 C 88 % 15 lf 1017,9 hPa 0,6 l/m 0 min 2 min 45 W/m 10,5 km/h (2 Bft)
19.06.2015 13:34 14,2 C 11,7 C 88 % 15 lf 1017,9 hPa 0,2 l/m 0 min 2 min 71 W/m 18,8 km/h (3 Bft)
19.06.2015 13:36 14,2 C 11,7 C 88 % 15 lf 1017,9 hPa 0,0 l/m 0 min 2 min 113 W/m 18,8 km/h (3 Bft)
19.06.2015 13:38 14,2 C 11,7 C 88 % 15 lf 1018,0 hPa 0,0 l/m 0 min 2 min 155 W/m 10,5 km/h (2 Bft)
19.06.2015 13:40 14,1 C 11,7 C 88 % 15 lf 1018,0 hPa 0,2 l/m 0 min 2 min 175 W/m 18,8 km/h (3 Bft)
19.06.2015 13:42 14,1 C 12,2 C 89 % 15 lf 1017,9 hPa 0,0 l/m 0 min 2 min 192 W/m 14,6 km/h (3 Bft)
19.06.2015 13:44 14,1 C 12,2 C 89 % 15 lf 1017,9 hPa 0,0 l/m 0 min 2 min 226 W/m 23,0 km/h (4 Bft)
19.06.2015 13:46 14,1 C 12,2 C 89 % 15 lf 1018,0 hPa 0,0 l/m 0 min 2 min 258 W/m 16,7 km/h (3 Bft)
19.06.2015 13:48 14,1 C 12,8 C 89 % 15 lf 1017,9 hPa 0,0 l/m 0 min 0 min 270 W/m 18,8 km/h (3 Bft)
19.06.2015 13:50 14,0 C 12,2 C 89 % 15 lf 1017,9 hPa 0,0 l/m 0 min 2 min 276 W/m 18,8 km/h (3 Bft)
19.06.2015 13:52 13,9 C 12,8 C 90 % 15 lf 1017,9 hPa 0,0 l/m 0 min 2 min 278 W/m 12,6 km/h (3 Bft)
19.06.2015 13:54 13,9 C 12,8 C 90 % 15 lf 1017,9 hPa 0,0 l/m 0 min 2 min 277 W/m 16,7 km/h (3 Bft)
19.06.2015 13:56 14,0 C 12,8 C 90 % 15 lf 1017,9 hPa 0,0 l/m 0 min 2 min 280 W/m 14,6 km/h (3 Bft)
19.06.2015 13:58 14,0 C 12,8 C 90 % 15 lf 1018,0 hPa 0,0 l/m 0 min 0 min 282 W/m 10,5 km/h (2 Bft)
19.06.2015 14:00 14,0 C 12,8 C 90 % 15 lf 1017,9 hPa 0,0 l/m 0 min 0 min 306 W/m 20,9 km/h (4 Bft)
19.06.2015 14:02 13,9 C 12,8 C 90 % 15 lf 1017,9 hPa 0,0 l/m 0 min 0 min 396 W/m 16,7 km/h (3 Bft)
19.06.2015 14:04 14,0 C 13,3 C 90 % 15 lf 1017,9 hPa 0,0 l/m 2 min 0 min 448 W/m 10,5 km/h (2 Bft)
19.06.2015 14:06 14,2 C 13,9 C 91 % 15 lf 1017,9 hPa 0,0 l/m 2 min 0 min 448 W/m 12,6 km/h (3 Bft)
19.06.2015 14:08 14,2 C 13,9 C 91 % 15 lf 1017,9 hPa 0,0 l/m 2 min 0 min 468 W/m 12,6 km/h (3 Bft)
19.06.2015 14:10 14,3 C 13,9 C 91 % 15 lf 1017,9 hPa 0,0 l/m 2 min 0 min 490 W/m 12,6 km/h (3 Bft)
19.06.2015 14:12 14,4 C 13,9 C 91 % 15 lf 1017,8 hPa 0,0 l/m 2 min 0 min 543 W/m 16,7 km/h (3 Bft)
19.06.2015 14:14 14,5 C 14,4 C 91 % 13 lf 1017,8 hPa 0,0 l/m 2 min 0 min 625 W/m 12,6 km/h (3 Bft)
19.06.2015 14:16 14,7 C 14,4 C 91 % 9 lf 1017,8 hPa 0,0 l/m 2 min 0 min 662 W/m 18,8 km/h (3 Bft)
19.06.2015 14:18 14,8 C 14,4 C 91 % 4 lf 1017,8 hPa 0,0 l/m 2 min 0 min 644 W/m 12,6 km/h (3 Bft)
19.06.2015 14:20 14,9 C 13,9 C 91 % 2 lf 1017,7 hPa 0,0 l/m 2 min 0 min 440 W/m 14,6 km/h (3 Bft)
19.06.2015 14:22 15,0 C 13,9 C 90 % 0 lf 1017,7 hPa 0,0 l/m 0 min 0 min 351 W/m 14,6 km/h (3 Bft)
19.06.2015 14:24 15,1 C 13,9 C 90 % 0 lf 1017,6 hPa 0,0 l/m 0 min 0 min 279 W/m 14,6 km/h (3 Bft)
19.06.2015 14:26 15,2 C 13,3 C 90 % 0 lf 1017,7 hPa 0,0 l/m 0 min 0 min 236 W/m 14,6 km/h (3 Bft)
19.06.2015 14:28 15,2 C 13,3 C 89 % 0 lf 1017,7 hPa 0,0 l/m 0 min 0 min 208 W/m 14,6 km/h (3 Bft)
19.06.2015 14:30 15,2 C 12,8 C 88 % 0 lf 1017,7 hPa 0,0 l/m 0 min 0 min 188 W/m 16,7 km/h (3 Bft)
19.06.2015 14:32 15,2 C 12,8 C 88 % 3 lf 1017,7 hPa 0,0 l/m 0 min 2 min 172 W/m 14,6 km/h (3 Bft)
19.06.2015 14:34 15,2 C 12,8 C 87 % 15 lf 1017,8 hPa 0,0 l/m 0 min 2 min 110 W/m 16,7 km/h (3 Bft)
19.06.2015 14:36 15,2 C 12,2 C 86 % 15 lf 1017,9 hPa 0,8 l/m 0 min 2 min 51 W/m 29,3 km/h (5 Bft)
19.06.2015 14:38 15,1 C 11,1 C 86 % 15 lf 1017,9 hPa 0,4 l/m 0 min 2 min 60 W/m 23,0 km/h (4 Bft)
19.06.2015 14:40 14,8 C 10,6 C 85 % 15 lf 1018,0 hPa 0,0 l/m 0 min 2 min 85 W/m 29,3 km/h (5 Bft)
19.06.2015 14:42 14,6 C 11,1 C 84 % 15 lf 1017,9 hPa 0,2 l/m 0 min 2 min 111 W/m 16,7 km/h (3 Bft)
19.06.2015 14:44 14,4 C 11,1 C 84 % 15 lf 1017,9 hPa 0,0 l/m 0 min 2 min 117 W/m 23,0 km/h (4 Bft)
19.06.2015 14:46 14,3 C 11,1 C 85 % 15 lf 1018,0 hPa 0,0 l/m 0 min 2 min 110 W/m 12,6 km/h (3 Bft)
19.06.2015 14:48 14,2 C 11,1 C 85 % 15 lf 1017,9 hPa 0,0 l/m 0 min 2 min 99 W/m 16,7 km/h (3 Bft)
19.06.2015 14:50 14,2 C 10,6 C 85 % 15 lf 1017,9 hPa 0,0 l/m 0 min 2 min 97 W/m 10,5 km/h (2 Bft)
19.06.2015 14:52 14,2 C 11,1 C 85 % 15 lf 1017,9 hPa 0,0 l/m 0 min 0 min 104 W/m 14,6 km/h (3 Bft)
19.06.2015 14:54 14,0 C 11,1 C 85 % 15 lf 1017,9 hPa 0,0 l/m 0 min 0 min 118 W/m 12,6 km/h (3 Bft)
19.06.2015 14:56 13,9 C 11,7 C 86 % 15 lf 1017,9 hPa 0,0 l/m 0 min 0 min 132 W/m 8,4 km/h (2 Bft)
19.06.2015 14:58 13,9 C 11,7 C 86 % 15 lf 1017,9 hPa 0,0 l/m 0 min 0 min 123 W/m 6,3 km/h (2 Bft)
19.06.2015 15:00 13,8 C 11,7 C 86 % 15 lf 1017,9 hPa 0,0 l/m 0 min 0 min 96 W/m 6,3 km/h (2 Bft)
19.06.2015 15:02 13,8 C 11,7 C 87 % 15 lf 1017,9 hPa 0,0 l/m 0 min 0 min 77 W/m 8,4 km/h (2 Bft)
19.06.2015 15:04 13,7 C 11,1 C 87 % 15 lf 1017,9 hPa 0,0 l/m 0 min 0 min 63 W/m 8,4 km/h (2 Bft)
19.06.2015 15:06 13,7 C 11,1 C 87 % 15 lf 1017,9 hPa 0,0 l/m 0 min 0 min 53 W/m 6,3 km/h (2 Bft)
19.06.2015 15:08 13,6 C 11,1 C 87 % 15 lf 1018,0 hPa 0,0 l/m 0 min 0 min 46 W/m 10,5 km/h (2 Bft)
19.06.2015 15:10 13,6 C 11,1 C 88 % 15 lf 1017,9 hPa 0,0 l/m 0 min 2 min 42 W/m 10,5 km/h (2 Bft)
19.06.2015 15:12 13,5 C 11,1 C 88 % 15 lf 1018,0 hPa 0,0 l/m 0 min 2 min 42 W/m 6,3 km/h (2 Bft)
19.06.2015 15:14 13,5 C 11,1 C 88 % 15 lf 1017,9 hPa 0,0 l/m 0 min 0 min 42 W/m 10,5 km/h (2 Bft)
19.06.2015 15:16 13,4 C 11,1 C 88 % 15 lf 1017,9 hPa 0,0 l/m 0 min 2 min 42 W/m 6,3 km/h (2 Bft)
19.06.2015 15:18 13,4 C 11,1 C 88 % 15 lf 1018,0 hPa 0,0 l/m 0 min 0 min 45 W/m 8,4 km/h (2 Bft)
19.06.2015 15:20 13,3 C 11,1 C 88 % 15 lf 1017,9 hPa 0,0 l/m 0 min 0 min 49 W/m 6,3 km/h (2 Bft)
19.06.2015 15:22 13,3 C 11,1 C 88 % 15 lf 1017,9 hPa 0,0 l/m 0 min 2 min 57 W/m 4,2 km/h (1 Bft)
19.06.2015 15:24 13,2 C 11,1 C 89 % 15 lf 1017,9 hPa 0,0 l/m 0 min 0 min 64 W/m 4,2 km/h (1 Bft)
19.06.2015 15:26 13,2 C 11,1 C 89 % 15 lf 1017,9 hPa 0,0 l/m 0 min 2 min 70 W/m 10,5 km/h (2 Bft)
19.06.2015 15:28 13,2 C 11,1 C 89 % 15 lf 1018,0 hPa 0,0 l/m 0 min 0 min 71 W/m 10,5 km/h (2 Bft)
19.06.2015 15:30 13,1 C 11,1 C 89 % 15 lf 1017,9 hPa 0,0 l/m 0 min 0 min 68 W/m 6,3 km/h (2 Bft)
19.06.2015 15:32 13,1 C 11,1 C 89 % 15 lf 1017,9 hPa 0,0 l/m 0 min 0 min 65 W/m 6,3 km/h (2 Bft)
19.06.2015 15:34 13,1 C 11,1 C 90 % 15 lf 1018,0 hPa 0,0 l/m 0 min 0 min 61 W/m 4,2 km/h (1 Bft)
19.06.2015 15:36 13,1 C 11,1 C 90 % 15 lf 1017,9 hPa 0,0 l/m 0 min 0 min 54 W/m 6,3 km/h (2 Bft)
19.06.2015 15:38 13,1 C 11,1 C 90 % 15 lf 1018,0 hPa 0,0 l/m 0 min 2 min 55 W/m 8,4 km/h (2 Bft)
19.06.2015 15:40 13,1 C 11,1 C 90 % 15 lf 1018,0 hPa 0,0 l/m 0 min 0 min 63 W/m 8,4 km/h (2 Bft)
19.06.2015 15:42 13,0 C 11,1 C 90 % 15 lf 1018,0 hPa 0,0 l/m 0 min 0 min 70 W/m 4,2 km/h (1 Bft)
19.06.2015 15:44 13,0 C 11,1 C 90 % 15 lf 1018,0 hPa 0,0 l/m 0 min 2 min 74 W/m 8,4 km/h (2 Bft)
19.06.2015 15:46 13,0 C 11,1 C 90 % 15 lf 1018,1 hPa 0,0 l/m 0 min 2 min 75 W/m 10,5 km/h (2 Bft)
19.06.2015 15:48 13,0 C 11,7 C 91 % 15 lf 1018,2 hPa 0,0 l/m 0 min 2 min 77 W/m 8,4 km/h (2 Bft)
19.06.2015 15:50 13,0 C 11,7 C 91 % 15 lf 1018,2 hPa 0,0 l/m 0 min 2 min 86 W/m 8,4 km/h (2 Bft)
19.06.2015 15:52 13,0 C 11,7 C 91 % 15 lf 1018,2 hPa 0,0 l/m 0 min 2 min 83 W/m 10,5 km/h (2 Bft)
19.06.2015 15:54 13,0 C 11,1 C 91 % 15 lf 1018,2 hPa 0,0 l/m 0 min 2 min 72 W/m 12,6 km/h (3 Bft)
19.06.2015 15:56 13,0 C 11,1 C 91 % 15 lf 1018,3 hPa 0,0 l/m 0 min 2 min 53 W/m 23,0 km/h (4 Bft)
19.06.2015 15:58 12,9 C 11,1 C 91 % 15 lf 1018,3 hPa 0,0 l/m 0 min 2 min 45 W/m 16,7 km/h (3 Bft)
19.06.2015 16:00 12,9 C 11,1 C 91 % 15 lf 1018,4 hPa 0,2 l/m 0 min 2 min 52 W/m 23,0 km/h (4 Bft)
19.06.2015 16:02 12,9 C 11,1 C 91 % 15 lf 1018,2 hPa 0,2 l/m 0 min 2 min 66 W/m 16,7 km/h (3 Bft)
19.06.2015 16:04 12,8 C 11,1 C 91 % 15 lf 1018,2 hPa 0,2 l/m 0 min 2 min 84 W/m 16,7 km/h (3 Bft)
19.06.2015 16:06 12,8 C 11,1 C 91 % 15 lf 1018,1 hPa 0,2 l/m 0 min 2 min 96 W/m 12,6 km/h (3 Bft)
19.06.2015 16:08 12,8 C 10,6 C 91 % 15 lf 1018,1 hPa 0,0 l/m 0 min 2 min 104 W/m 18,8 km/h (3 Bft)
19.06.2015 16:10 12,7 C 10,6 C 91 % 15 lf 1018,1 hPa 0,0 l/m 0 min 2 min 109 W/m 14,6 km/h (3 Bft)
19.06.2015 16:12 12,7 C 11,1 C 91 % 15 lf 1018,1 hPa 0,0 l/m 0 min 2 min 102 W/m 10,5 km/h (2 Bft)
19.06.2015 16:14 12,7 C 11,1 C 91 % 15 lf 1018,0 hPa 0,0 l/m 0 min 2 min 92 W/m 8,4 km/h (2 Bft)
19.06.2015 16:16 12,7 C 11,1 C 91 % 15 lf 1018,0 hPa 0,0 l/m 0 min 2 min 84 W/m 14,6 km/h (3 Bft)
19.06.2015 16:18 12,7 C 10,6 C 91 % 15 lf 1017,9 hPa 0,0 l/m 0 min 2 min 83 W/m 12,6 km/h (3 Bft)
19.06.2015 16:20 12,7 C 11,1 C 91 % 15 lf 1017,9 hPa 0,0 l/m 0 min 2 min 79 W/m 6,3 km/h (2 Bft)
19.06.2015 16:22 12,7 C 11,1 C 92 % 15 lf 1017,8 hPa 0,0 l/m 0 min 0 min 76 W/m 8,4 km/h (2 Bft)
19.06.2015 16:24 12,7 C 11,1 C 92 % 15 lf 1017,9 hPa 0,0 l/m 0 min 0 min 74 W/m 10,5 km/h (2 Bft)
19.06.2015 16:26 12,6 C 11,1 C 92 % 15 lf 1017,8 hPa 0,0 l/m 0 min 0 min 74 W/m 12,6 km/h (3 Bft)
19.06.2015 16:28 12,6 C 11,1 C 92 % 15 lf 1017,9 hPa 0,0 l/m 0 min 0 min 75 W/m 8,4 km/h (2 Bft)
19.06.2015 16:30 12,6 C 11,1 C 92 % 15 lf 1017,9 hPa 0,0 l/m 0 min 0 min 77 W/m 6,3 km/h (2 Bft)
19.06.2015 16:32 12,6 C 11,7 C 92 % 15 lf 1017,9 hPa 0,0 l/m 0 min 0 min 81 W/m 10,5 km/h (2 Bft)
19.06.2015 16:34 12,7 C 11,7 C 92 % 15 lf 1017,8 hPa 0,0 l/m 0 min 0 min 88 W/m 8,4 km/h (2 Bft)
19.06.2015 16:36 12,7 C 11,7 C 92 % 15 lf 1017,8 hPa 0,0 l/m 0 min 0 min 97 W/m 8,4 km/h (2 Bft)
19.06.2015 16:38 12,7 C 11,7 C 92 % 15 lf 1017,8 hPa 0,2 l/m 0 min 0 min 106 W/m 8,4 km/h (2 Bft)
19.06.2015 16:40 12,7 C 11,7 C 92 % 15 lf 1017,8 hPa 0,0 l/m 0 min 0 min 118 W/m 8,4 km/h (2 Bft)
19.06.2015 16:42 12,8 C 11,7 C 92 % 15 lf 1017,9 hPa 0,0 l/m 0 min 0 min 128 W/m 6,3 km/h (2 Bft)
19.06.2015 16:44 12,8 C 11,7 C 92 % 15 lf 1017,8 hPa 0,0 l/m 0 min 0 min 139 W/m 4,2 km/h (1 Bft)
19.06.2015 16:46 12,8 C 11,7 C 93 % 15 lf 1017,9 hPa 0,0 l/m 0 min 0 min 152 W/m 4,2 km/h (1 Bft)
19.06.2015 16:48 12,9 C 11,7 C 93 % 15 lf 1017,8 hPa 0,0 l/m 0 min 0 min 168 W/m 4,2 km/h (1 Bft)
19.06.2015 16:50 12,9 C 12,2 C 93 % 15 lf 1017,8 hPa 0,0 l/m 0 min 0 min 179 W/m 2,1 km/h (1 Bft)
19.06.2015 16:52 13,0 C 12,2 C 93 % 15 lf 1017,8 hPa 0,0 l/m 0 min 0 min 197 W/m 6,3 km/h (2 Bft)
19.06.2015 16:54 13,1 C 12,8 C 93 % 15 lf 1017,8 hPa 0,0 l/m 0 min 0 min 216 W/m 6,3 km/h (2 Bft)
19.06.2015 16:56 13,1 C 12,8 C 93 % 15 lf 1017,8 hPa 0,0 l/m 0 min 0 min 236 W/m 6,3 km/h (2 Bft)
19.06.2015 16:58 13,2 C 12,8 C 94 % 15 lf 1017,9 hPa 0,0 l/m 0 min 0 min 240 W/m 4,2 km/h (1 Bft)
19.06.2015 17:00 13,3 C 12,8 C 94 % 15 lf 1017,8 hPa 0,0 l/m 0 min 0 min 210 W/m 6,3 km/h (2 Bft)
19.06.2015 17:02 13,4 C 12,2 C 94 % 15 lf 1017,8 hPa 0,0 l/m 0 min 0 min 177 W/m 8,4 km/h (2 Bft)
19.06.2015 17:04 13,4 C 12,2 C 94 % 15 lf 1017,8 hPa 0,0 l/m 0 min 0 min 179 W/m 6,3 km/h (2 Bft)
19.06.2015 17:06 13,5 C 12,2 C 94 % 15 lf 1017,8 hPa 0,0 l/m 0 min 0 min 157 W/m 10,5 km/h (2 Bft)
19.06.2015 17:08 13,6 C 12,2 C 94 % 15 lf 1017,9 hPa 0,0 l/m 0 min 0 min 116 W/m 2,1 km/h (1 Bft)
19.06.2015 17:10 13,6 C 12,2 C 94 % 15 lf 1017,9 hPa 0,0 l/m 0 min 0 min 93 W/m 8,4 km/h (2 Bft)
19.06.2015 17:12 13,6 C 12,2 C 94 % 15 lf 1017,9 hPa 0,0 l/m 0 min 0 min 70 W/m 10,5 km/h (2 Bft)
19.06.2015 17:14 13,6 C 11,7 C 94 % 15 lf 1017,9 hPa 0,0 l/m 0 min 0 min 50 W/m 12,6 km/h (3 Bft)
19.06.2015 17:16 13,6 C 11,7 C 94 % 15 lf 1018,0 hPa 0,0 l/m 0 min 0 min 38 W/m 14,6 km/h (3 Bft)
19.06.2015 17:18 13,4 C 11,7 C 94 % 15 lf 1018,0 hPa 0,0 l/m 0 min 2 min 24 W/m 18,8 km/h (3 Bft)
19.06.2015 17:20 13,4 C 11,1 C 93 % 15 lf 1018,1 hPa 0,0 l/m 0 min 2 min 23 W/m 14,6 km/h (3 Bft)
19.06.2015 17:22 13,3 C 11,1 C 93 % 15 lf 1018,0 hPa 0,0 l/m 0 min 2 min 32 W/m 12,6 km/h (3 Bft)
19.06.2015 17:24 13,3 C 11,1 C 93 % 15 lf 1018,0 hPa 0,0 l/m 0 min 2 min 37 W/m 12,6 km/h (3 Bft)
19.06.2015 17:26 13,2 C 10,6 C 92 % 15 lf 1018,0 hPa 0,0 l/m 0 min 0 min 41 W/m 10,5 km/h (2 Bft)
19.06.2015 17:28 13,1 C 10,6 C 92 % 15 lf 1018,1 hPa 0,0 l/m 0 min 0 min 47 W/m 8,4 km/h (2 Bft)
19.06.2015 17:30 13,1 C 10,6 C 92 % 15 lf 1018,2 hPa 0,0 l/m 0 min 0 min 52 W/m 10,5 km/h (2 Bft)
19.06.2015 17:32 13,0 C 11,1 C 92 % 15 lf 1018,2 hPa 0,0 l/m 0 min 0 min 55 W/m 8,4 km/h (2 Bft)
19.06.2015 17:34 13,0 C 10,6 C 92 % 15 lf 1018,1 hPa 0,0 l/m 0 min 0 min 58 W/m 8,4 km/h (2 Bft)
19.06.2015 17:36 13,0 C 10,6 C 92 % 15 lf 1018,1 hPa 0,0 l/m 0 min 0 min 62 W/m 4,2 km/h (1 Bft)
19.06.2015 17:38 12,9 C 10,6 C 92 % 15 lf 1018,1 hPa 0,0 l/m 0 min 0 min 63 W/m 4,2 km/h (1 Bft)
19.06.2015 17:40 12,9 C 10,6 C 92 % 15 lf 1018,1 hPa 0,0 l/m 0 min 0 min 63 W/m 8,4 km/h (2 Bft)
19.06.2015 17:42 12,9 C 10,6 C 92 % 15 lf 1018,1 hPa 0,0 l/m 0 min 0 min 62 W/m 6,3 km/h (2 Bft)
19.06.2015 17:44 12,8 C 10,6 C 92 % 15 lf 1018,2 hPa 0,0 l/m 0 min 0 min 64 W/m 4,2 km/h (1 Bft)
19.06.2015 17:46 12,8 C 10,6 C 92 % 15 lf 1018,0 hPa 0,0 l/m 0 min 0 min 70 W/m 4,2 km/h (1 Bft)
19.06.2015 17:48 12,8 C 11,1 C 92 % 15 lf 1018,0 hPa 0,0 l/m 0 min 0 min 80 W/m 4,2 km/h (1 Bft)
19.06.2015 17:50 12,8 C 11,1 C 91 % 15 lf 1018,1 hPa 0,0 l/m 0 min 0 min 100 W/m 6,3 km/h (2 Bft)
19.06.2015 17:52 12,8 C 11,1 C 91 % 15 lf 1018,0 hPa 0,0 l/m 0 min 0 min 127 W/m 4,2 km/h (1 Bft)
19.06.2015 17:54 12,8 C 11,1 C 91 % 15 lf 1018,0 hPa 0,0 l/m 0 min 0 min 154 W/m 6,3 km/h (2 Bft)
19.06.2015 17:56 12,8 C 11,1 C 91 % 15 lf 1018,0 hPa 0,0 l/m 0 min 0 min 175 W/m 4,2 km/h (1 Bft)
19.06.2015 17:58 12,8 C 11,1 C 91 % 15 lf 1018,0 hPa 0,0 l/m 0 min 0 min 186 W/m 4,2 km/h (1 Bft)
19.06.2015 18:00 12,8 C 11,7 C 92 % 15 lf 1017,9 hPa 0,0 l/m 0 min 0 min 192 W/m 2,1 km/h (1 Bft)
19.06.2015 18:02 12,8 C 11,7 C 92 % 15 lf 1018,0 hPa 0,0 l/m 0 min 0 min 196 W/m 4,2 km/h (1 Bft)
19.06.2015 18:05 12,8 C 11,7 C 92 % 15 lf 1018,0 hPa 0,0 l/m 0 min 0 min 193 W/m 8,4 km/h (2 Bft)
19.06.2015 18:06 12,8 C 11,7 C 92 % 15 lf 1018,0 hPa 0,0 l/m 0 min 0 min 195 W/m 8,4 km/h (2 Bft)
19.06.2015 18:08 12,9 C 11,7 C 92 % 15 lf 1018,0 hPa 0,0 l/m 0 min 0 min 183 W/m 8,4 km/h (2 Bft)
19.06.2015 18:10 12,9 C 11,7 C 92 % 15 lf 1018,0 hPa 0,0 l/m 0 min 0 min 182 W/m 8,4 km/h (2 Bft)
19.06.2015 18:12 12,9 C 12,2 C 92 % 15 lf 1017,9 hPa 0,0 l/m 0 min 0 min 182 W/m 4,2 km/h (1 Bft)
19.06.2015 18:14 12,9 C 12,2 C 92 % 15 lf 1018,0 hPa 0,0 l/m 0 min 0 min 170 W/m 6,3 km/h (2 Bft)
19.06.2015 18:16 13,0 C 11,7 C 92 % 15 lf 1018,0 hPa 0,0 l/m 0 min 0 min 161 W/m 10,5 km/h (2 Bft)
19.06.2015 18:18 13,1 C 11,7 C 92 % 15 lf 1018,0 hPa 0,0 l/m 0 min 0 min 147 W/m 10,5 km/h (2 Bft)
19.06.2015 18:20 13,1 C 11,7 C 92 % 15 lf 1018,0 hPa 0,0 l/m 0 min 0 min 136 W/m 14,6 km/h (3 Bft)
19.06.2015 18:22 13,1 C 11,7 C 92 % 15 lf 1018,0 hPa 0,0 l/m 0 min 0 min 121 W/m 8,4 km/h (2 Bft)
19.06.2015 18:24 13,1 C 11,7 C 92 % 15 lf 1018,1 hPa 0,0 l/m 0 min 0 min 105 W/m 12,6 km/h (3 Bft)
19.06.2015 18:26 13,2 C 11,7 C 92 % 15 lf 1018,0 hPa 0,0 l/m 0 min 0 min 97 W/m 10,5 km/h (2 Bft)
19.06.2015 18:28 13,2 C 11,7 C 92 % 15 lf 1018,0 hPa 0,0 l/m 0 min 0 min 94 W/m 8,4 km/h (2 Bft)
19.06.2015 18:30 13,2 C 11,7 C 92 % 15 lf 1017,9 hPa 0,0 l/m 0 min 0 min 108 W/m 6,3 km/h (2 Bft)
19.06.2015 18:32 13,2 C 12,2 C 92 % 15 lf 1018,0 hPa 0,0 l/m 0 min 0 min 112 W/m 4,2 km/h (1 Bft)
19.06.2015 18:34 13,3 C 12,2 C 92 % 15 lf 1018,0 hPa 0,0 l/m 0 min 0 min 107 W/m 4,2 km/h (1 Bft)
19.06.2015 18:36 13,3 C 12,2 C 92 % 15 lf 1018,0 hPa 0,0 l/m 0 min 0 min 109 W/m 4,2 km/h (1 Bft)
19.06.2015 18:38 13,4 C 11,7 C 92 % 15 lf 1018,0 hPa 0,0 l/m 0 min 0 min 107 W/m 6,3 km/h (2 Bft)
19.06.2015 18:40 13,4 C 12,2 C 92 % 15 lf 1017,9 hPa 0,0 l/m 0 min 0 min 125 W/m 8,4 km/h (2 Bft)
19.06.2015 18:42 13,4 C 11,7 C 92 % 15 lf 1017,9 hPa 0,0 l/m 0 min 0 min 114 W/m 6,3 km/h (2 Bft)
19.06.2015 18:44 13,4 C 11,7 C 92 % 15 lf 1017,9 hPa 0,0 l/m 0 min 0 min 68 W/m 8,4 km/h (2 Bft)
19.06.2015 18:46 13,5 C 11,7 C 92 % 15 lf 1018,0 hPa 0,0 l/m 0 min 0 min 27 W/m 8,4 km/h (2 Bft)
19.06.2015 18:48 13,5 C 11,7 C 92 % 15 lf 1018,1 hPa 0,0 l/m 0 min 0 min 16 W/m 12,6 km/h (3 Bft)
19.06.2015 18:50 13,4 C 11,1 C 92 % 14 lf 1018,2 hPa 0,0 l/m 0 min 0 min 18 W/m 23,0 km/h (4 Bft)
19.06.2015 18:52 13,4 C 11,1 C 91 % 13 lf 1018,1 hPa 0,0 l/m 0 min 0 min 20 W/m 16,7 km/h (3 Bft)
19.06.2015 18:54 13,3 C 10,6 C 91 % 15 lf 1018,2 hPa 0,0 l/m 0 min 2 min 22 W/m 16,7 km/h (3 Bft)
19.06.2015 18:56 13,2 C 10,6 C 90 % 15 lf 1018,3 hPa 0,0 l/m 0 min 2 min 21 W/m 25,1 km/h (4 Bft)
19.06.2015 18:58 13,1 C 10,6 C 89 % 15 lf 1018,2 hPa 0,0 l/m 0 min 0 min 20 W/m 18,8 km/h (3 Bft)
19.06.2015 19:00 13,0 C 10,6 C 89 % 14 lf 1018,3 hPa 0,0 l/m 0 min 0 min 19 W/m 10,5 km/h (2 Bft)
19.06.2015 19:02 12,9 C 10,6 C 89 % 13 lf 1018,3 hPa 0,0 l/m 0 min 0 min 19 W/m 12,6 km/h (3 Bft)
19.06.2015 19:04 12,9 C 10,0 C 88 % 14 lf 1018,2 hPa 0,0 l/m 0 min 2 min 19 W/m 12,6 km/h (3 Bft)
19.06.2015 19:06 12,9 C 10,0 C 88 % 15 lf 1018,2 hPa 0,0 l/m 0 min 2 min 19 W/m 10,5 km/h (2 Bft)
19.06.2015 19:08 12,8 C 10,6 C 88 % 15 lf 1018,3 hPa 0,0 l/m 0 min 2 min 20 W/m 6,3 km/h (2 Bft)
19.06.2015 19:10 12,8 C 10,6 C 88 % 15 lf 1018,3 hPa 0,0 l/m 0 min 2 min 21 W/m 10,5 km/h (2 Bft)
19.06.2015 19:12 12,8 C 10,6 C 88 % 15 lf 1018,3 hPa 0,0 l/m 0 min 2 min 24 W/m 8,4 km/h (2 Bft)
19.06.2015 19:14 12,8 C 10,6 C 88 % 15 lf 1018,3 hPa 0,0 l/m 0 min 0 min 26 W/m 10,5 km/h (2 Bft)
19.06.2015 19:16 12,8 C 10,6 C 88 % 15 lf 1018,3 hPa 0,0 l/m 0 min 0 min 28 W/m 10,5 km/h (2 Bft)
19.06.2015 19:18 12,7 C 10,6 C 88 % 15 lf 1018,3 hPa 0,0 l/m 0 min 2 min 32 W/m 6,3 km/h (2 Bft)
19.06.2015 19:20 12,7 C 10,6 C 88 % 15 lf 1018,3 hPa 0,0 l/m 0 min 2 min 37 W/m 4,2 km/h (1 Bft)
19.06.2015 19:22 12,7 C 10,6 C 88 % 15 lf 1018,3 hPa 0,0 l/m 0 min 0 min 38 W/m 2,1 km/h (1 Bft)
19.06.2015 19:24 12,7 C 10,6 C 88 % 15 lf 1018,3 hPa 0,0 l/m 0 min 0 min 34 W/m 2,1 km/h (1 Bft)
19.06.2015 19:26 12,7 C 10,6 C 88 % 15 lf 1018,3 hPa 0,0 l/m 0 min 0 min 33 W/m 10,5 km/h (2 Bft)
19.06.2015 19:28 12,7 C 10,6 C 89 % 15 lf 1018,2 hPa 0,0 l/m 0 min 0 min 34 W/m 12,6 km/h (3 Bft)
19.06.2015 19:30 12,7 C 10,6 C 89 % 15 lf 1018,3 hPa 0,0 l/m 0 min 0 min 36 W/m 12,6 km/h (3 Bft)
19.06.2015 19:32 12,7 C 10,6 C 89 % 15 lf 1018,3 hPa 0,0 l/m 0 min 0 min 38 W/m 6,3 km/h (2 Bft)
19.06.2015 19:34 12,7 C 10,6 C 89 % 15 lf 1018,3 hPa 0,0 l/m 0 min 0 min 40 W/m 8,4 km/h (2 Bft)
19.06.2015 19:36 12,6 C 10,6 C 89 % 15 lf 1018,3 hPa 0,0 l/m 0 min 0 min 42 W/m 6,3 km/h (2 Bft)
19.06.2015 19:38 12,6 C 10,6 C 89 % 15 lf 1018,2 hPa 0,0 l/m 0 min 0 min 42 W/m 10,5 km/h (2 Bft)
19.06.2015 19:40 12,6 C 10,6 C 89 % 15 lf 1018,2 hPa 0,0 l/m 0 min 0 min 40 W/m 10,5 km/h (2 Bft)
19.06.2015 19:42 12,6 C 10,6 C 89 % 15 lf 1018,2 hPa 0,0 l/m 0 min 0 min 39 W/m 8,4 km/h (2 Bft)
19.06.2015 19:44 12,6 C 10,6 C 89 % 15 lf 1018,3 hPa 0,0 l/m 0 min 0 min 40 W/m 10,5 km/h (2 Bft)
19.06.2015 19:46 12,6 C 10,6 C 89 % 15 lf 1018,3 hPa 0,0 l/m 0 min 0 min 46 W/m 8,4 km/h (2 Bft)
19.06.2015 19:48 12,5 C 10,6 C 89 % 15 lf 1018,3 hPa 0,0 l/m 0 min 0 min 50 W/m 10,5 km/h (2 Bft)
19.06.2015 19:50 12,5 C 10,6 C 89 % 15 lf 1018,3 hPa 0,0 l/m 0 min 0 min 55 W/m 12,6 km/h (3 Bft)
19.06.2015 19:52 12,5 C 10,6 C 89 % 15 lf 1018,3 hPa 0,0 l/m 0 min 0 min 58 W/m 8,4 km/h (2 Bft)
19.06.2015 19:54 12,4 C 10,6 C 89 % 15 lf 1018,3 hPa 0,0 l/m 0 min 0 min 57 W/m 6,3 km/h (2 Bft)
19.06.2015 19:56 12,4 C 10,6 C 90 % 15 lf 1018,3 hPa 0,0 l/m 0 min 0 min 51 W/m 6,3 km/h (2 Bft)
19.06.2015 19:58 12,5 C 11,1 C 90 % 15 lf 1018,3 hPa 0,0 l/m 0 min 0 min 46 W/m 2,1 km/h (1 Bft)
19.06.2015 20:00 12,5 C 11,1 C 90 % 15 lf 1018,3 hPa 0,0 l/m 0 min 0 min 40 W/m 6,3 km/h (2 Bft)
19.06.2015 20:02 12,5 C 11,1 C 90 % 15 lf 1018,3 hPa 0,0 l/m 0 min 0 min 34 W/m 6,3 km/h (2 Bft)
19.06.2015 20:04 12,5 C 10,6 C 90 % 15 lf 1018,4 hPa 0,0 l/m 0 min 0 min 28 W/m 6,3 km/h (2 Bft)
19.06.2015 20:06 12,5 C 10,6 C 90 % 15 lf 1018,4 hPa 0,0 l/m 0 min 0 min 22 W/m 8,4 km/h (2 Bft)
19.06.2015 20:08 12,5 C 10,6 C 90 % 15 lf 1018,4 hPa 0,0 l/m 0 min 0 min 18 W/m 8,4 km/h (2 Bft)
19.06.2015 20:10 12,5 C 10,6 C 90 % 15 lf 1018,4 hPa 0,0 l/m 0 min 0 min 14 W/m 8,4 km/h (2 Bft)
19.06.2015 20:12 12,5 C 10,6 C 90 % 14 lf 1018,4 hPa 0,0 l/m 0 min 0 min 11 W/m 8,4 km/h (2 Bft)
19.06.2015 20:14 12,5 C 10,6 C 91 % 15 lf 1018,4 hPa 0,0 l/m 0 min 2 min 11 W/m 8,4 km/h (2 Bft)
19.06.2015 20:16 12,5 C 10,6 C 91 % 15 lf 1018,5 hPa 0,0 l/m 0 min 2 min 9 W/m 10,5 km/h (2 Bft)
19.06.2015 20:18 12,5 C 10,6 C 91 % 15 lf 1018,6 hPa 0,0 l/m 0 min 2 min 7 W/m 12,6 km/h (3 Bft)
19.06.2015 20:20 12,4 C 10,6 C 91 % 15 lf 1018,6 hPa 0,4 l/m 0 min 2 min 9 W/m 16,7 km/h (3 Bft)
19.06.2015 20:22 12,4 C 10,6 C 91 % 15 lf 1018,6 hPa 0,0 l/m 0 min 2 min 12 W/m 14,6 km/h (3 Bft)
19.06.2015 20:24 12,4 C 10,6 C 91 % 15 lf 1018,6 hPa 0,2 l/m 0 min 2 min 13 W/m 12,6 km/h (3 Bft)
19.06.2015 20:26 12,4 C 10,6 C 91 % 15 lf 1018,6 hPa 0,0 l/m 0 min 2 min 9 W/m 10,5 km/h (2 Bft)
19.06.2015 20:28 12,4 C 10,6 C 91 % 15 lf 1018,6 hPa 0,4 l/m 0 min 2 min 10 W/m 14,6 km/h (3 Bft)
19.06.2015 20:30 12,4 C 10,6 C 91 % 15 lf 1018,6 hPa 0,4 l/m 0 min 2 min 14 W/m 14,6 km/h (3 Bft)
19.06.2015 20:32 12,4 C 10,6 C 91 % 15 lf 1018,6 hPa 0,0 l/m 0 min 2 min 16 W/m 16,7 km/h (3 Bft)
19.06.2015 20:34 12,3 C 10,6 C 91 % 15 lf 1018,6 hPa 0,0 l/m 0 min 2 min 18 W/m 16,7 km/h (3 Bft)
19.06.2015 20:36 12,3 C 10,6 C 91 % 15 lf 1018,6 hPa 0,0 l/m 0 min 2 min 19 W/m 16,7 km/h (3 Bft)
19.06.2015 20:38 12,3 C 10,6 C 91 % 15 lf 1018,6 hPa 0,2 l/m 0 min 2 min 17 W/m 12,6 km/h (3 Bft)
19.06.2015 20:40 12,3 C 10,6 C 91 % 15 lf 1018,6 hPa 0,0 l/m 0 min 2 min 16 W/m 8,4 km/h (2 Bft)
19.06.2015 20:42 12,2 C 10,6 C 91 % 15 lf 1018,5 hPa 0,0 l/m 0 min 2 min 14 W/m 6,3 km/h (2 Bft)
19.06.2015 20:44 12,2 C 10,6 C 92 % 15 lf 1018,6 hPa 0,0 l/m 0 min 2 min 12 W/m 8,4 km/h (2 Bft)
19.06.2015 20:46 12,2 C 10,6 C 92 % 15 lf 1018,6 hPa 0,0 l/m 0 min 0 min 11 W/m 6,3 km/h (2 Bft)
19.06.2015 20:48 12,2 C 10,6 C 92 % 15 lf 1018,6 hPa 0,0 l/m 0 min 2 min 11 W/m 8,4 km/h (2 Bft)
19.06.2015 20:50 12,2 C 10,6 C 92 % 15 lf 1018,6 hPa 0,0 l/m 0 min 2 min 11 W/m 6,3 km/h (2 Bft)
19.06.2015 20:52 12,1 C 10,6 C 92 % 15 lf 1018,5 hPa 0,0 l/m 0 min 0 min 11 W/m 6,3 km/h (2 Bft)
19.06.2015 20:54 12,1 C 10,6 C 92 % 15 lf 1018,6 hPa 0,0 l/m 0 min 2 min 11 W/m 6,3 km/h (2 Bft)
19.06.2015 20:56 12,1 C 10,6 C 92 % 15 lf 1018,5 hPa 0,0 l/m 0 min 0 min 11 W/m 10,5 km/h (2 Bft)
19.06.2015 20:58 12,1 C 10,6 C 92 % 15 lf 1018,6 hPa 0,0 l/m 0 min 2 min 11 W/m 10,5 km/h (2 Bft)
19.06.2015 21:00 12,1 C 10,6 C 92 % 15 lf 1018,6 hPa 0,0 l/m 0 min 0 min 11 W/m 10,5 km/h (2 Bft)
19.06.2015 21:02 12,0 C 10,0 C 92 % 15 lf 1018,6 hPa 0,0 l/m 0 min 0 min 12 W/m 6,3 km/h (2 Bft)
19.06.2015 21:04 12,0 C 10,0 C 92 % 15 lf 1018,5 hPa 0,0 l/m 0 min 0 min 12 W/m 10,5 km/h (2 Bft)
19.06.2015 21:06 11,9 C 10,0 C 92 % 15 lf 1018,5 hPa 0,0 l/m 0 min 0 min 11 W/m 4,2 km/h (1 Bft)
19.06.2015 21:08 11,9 C 10,0 C 92 % 15 lf 1018,5 hPa 0,0 l/m 0 min 0 min 11 W/m 4,2 km/h (1 Bft)
19.06.2015 21:10 11,9 C 10,6 C 92 % 15 lf 1018,5 hPa 0,0 l/m 0 min 0 min 11 W/m 6,3 km/h (2 Bft)
19.06.2015 21:12 11,9 C 10,6 C 92 % 15 lf 1018,4 hPa 0,0 l/m 0 min 0 min 11 W/m 4,2 km/h (1 Bft)
19.06.2015 21:14 11,9 C 10,0 C 93 % 15 lf 1018,5 hPa 0,0 l/m 0 min 0 min 9 W/m 4,2 km/h (1 Bft)
19.06.2015 21:16 11,8 C 10,0 C 93 % 15 lf 1018,5 hPa 0,0 l/m 0 min 0 min 9 W/m 4,2 km/h (1 Bft)
19.06.2015 21:18 11,8 C 10,6 C 93 % 15 lf 1018,5 hPa 0,0 l/m 0 min 0 min 9 W/m 6,3 km/h (2 Bft)
19.06.2015 21:20 11,8 C 10,6 C 93 % 15 lf 1018,5 hPa 0,0 l/m 0 min 0 min 9 W/m 4,2 km/h (1 Bft)
19.06.2015 21:22 11,8 C 10,6 C 93 % 15 lf 1018,5 hPa 0,0 l/m 0 min 0 min 9 W/m 6,3 km/h (2 Bft)
19.06.2015 21:24 11,8 C 10,6 C 93 % 15 lf 1018,5 hPa 0,0 l/m 0 min 0 min 9 W/m 6,3 km/h (2 Bft)
19.06.2015 21:26 11,8 C 10,6 C 93 % 15 lf 1018,6 hPa 0,0 l/m 0 min 0 min 8 W/m 6,3 km/h (2 Bft)
19.06.2015 21:28 11,8 C 10,6 C 93 % 15 lf 1018,6 hPa 0,0 l/m 0 min 0 min 7 W/m 4,2 km/h (1 Bft)
19.06.2015 21:30 11,8 C 10,6 C 93 % 15 lf 1018,6 hPa 0,0 l/m 0 min 0 min 7 W/m 4,2 km/h (1 Bft)
19.06.2015 21:32 11,8 C 10,6 C 93 % 15 lf 1018,6 hPa 0,0 l/m 0 min 0 min 7 W/m 4,2 km/h (1 Bft)
19.06.2015 21:34 11,8 C 10,6 C 93 % 15 lf 1018,7 hPa 0,0 l/m 0 min 0 min 7 W/m 6,3 km/h (2 Bft)
19.06.2015 21:36 11,8 C 10,6 C 93 % 15 lf 1018,6 hPa 0,0 l/m 0 min 0 min 7 W/m 2,1 km/h (1 Bft)
19.06.2015 21:38 11,8 C 10,6 C 93 % 15 lf 1018,7 hPa 0,0 l/m 0 min 0 min 7 W/m 4,2 km/h (1 Bft)
19.06.2015 21:40 11,8 C 10,6 C 93 % 15 lf 1018,7 hPa 0,0 l/m 0 min 0 min 7 W/m 2,1 km/h (1 Bft)
19.06.2015 21:42 11,7 C 10,0 C 93 % 15 lf 1018,7 hPa 0,0 l/m 0 min 0 min 6 W/m 4,2 km/h (1 Bft)
19.06.2015 21:44 11,7 C 10,0 C 93 % 15 lf 1018,7 hPa 0,0 l/m 0 min 0 min 5 W/m 2,1 km/h (1 Bft)
19.06.2015 21:46 11,7 C 10,0 C 93 % 15 lf 1018,7 hPa 0,0 l/m 0 min 0 min 5 W/m 4,2 km/h (1 Bft)
19.06.2015 21:48 11,7 C 10,0 C 93 % 15 lf 1018,7 hPa 0,0 l/m 0 min 0 min 5 W/m 4,2 km/h (1 Bft)
19.06.2015 21:50 11,7 C 10,0 C 93 % 15 lf 1018,7 hPa 0,0 l/m 0 min 0 min 5 W/m 2,1 km/h (1 Bft)
19.06.2015 21:52 11,7 C 10,0 C 93 % 15 lf 1018,7 hPa 0,0 l/m 0 min 2 min 5 W/m 2,1 km/h (1 Bft)
19.06.2015 21:54 11,7 C 10,0 C 93 % 15 lf 1018,8 hPa 0,0 l/m 0 min 0 min 1 W/m 4,2 km/h (1 Bft)
19.06.2015 21:56 11,7 C 10,0 C 93 % 15 lf 1018,7 hPa 0,0 l/m 0 min 0 min 0 W/m 2,1 km/h (1 Bft)
19.06.2015 21:58 11,7 C 10,0 C 93 % 15 lf 1018,8 hPa 0,0 l/m 0 min 0 min 0 W/m 4,2 km/h (1 Bft)
19.06.2015 22:00 11,7 C 10,0 C 93 % 15 lf 1018,8 hPa 0,0 l/m 0 min 0 min 0 W/m 4,2 km/h (1 Bft)
19.06.2015 22:02 11,7 C 10,0 C 93 % 15 lf 1018,7 hPa 0,0 l/m 0 min 0 min 0 W/m 4,2 km/h (1 Bft)
19.06.2015 22:04 11,6 C 10,0 C 93 % 15 lf 1018,8 hPa 0,0 l/m 0 min 0 min 0 W/m 2,1 km/h (1 Bft)
19.06.2015 22:06 11,7 C 10,0 C 93 % 15 lf 1018,8 hPa 0,0 l/m 0 min 0 min 0 W/m 2,1 km/h (1 Bft)
19.06.2015 22:08 11,6 C 10,0 C 93 % 15 lf 1018,8 hPa 0,0 l/m 0 min 0 min 0 W/m 2,1 km/h (1 Bft)
19.06.2015 22:10 11,6 C 10,0 C 94 % 15 lf 1018,8 hPa 0,0 l/m 0 min 0 min 0 W/m 2,1 km/h (1 Bft)
19.06.2015 22:12 11,6 C 10,0 C 93 % 15 lf 1018,8 hPa 0,0 l/m 0 min 0 min 0 W/m 4,2 km/h (1 Bft)
19.06.2015 22:14 11,6 C 10,0 C 93 % 15 lf 1018,8 hPa 0,0 l/m 0 min 0 min 0 W/m 4,2 km/h (1 Bft)
19.06.2015 22:16 11,6 C 10,0 C 93 % 15 lf 1018,8 hPa 0,0 l/m 0 min 0 min 0 W/m 4,2 km/h (1 Bft)
19.06.2015 22:18 11,6 C 10,0 C 93 % 15 lf 1018,8 hPa 0,0 l/m 0 min 0 min 0 W/m 4,2 km/h (1 Bft)
19.06.2015 22:20 11,6 C 10,0 C 93 % 15 lf 1018,8 hPa 0,0 l/m 0 min 0 min 0 W/m 4,2 km/h (1 Bft)
19.06.2015 22:22 11,6 C 10,0 C 93 % 15 lf 1018,8 hPa 0,0 l/m 0 min 0 min 0 W/m 4,2 km/h (1 Bft)
19.06.2015 22:24 11,6 C 10,0 C 93 % 15 lf 1018,8 hPa 0,0 l/m 0 min 0 min 0 W/m 4,2 km/h (1 Bft)
19.06.2015 22:26 11,6 C 10,0 C 93 % 15 lf 1018,8 hPa 0,0 l/m 0 min 0 min 0 W/m 2,1 km/h (1 Bft)
19.06.2015 22:28 11,5 C 10,6 C 93 % 15 lf 1018,8 hPa 0,0 l/m 0 min 0 min 0 W/m 4,2 km/h (1 Bft)
19.06.2015 22:30 11,5 C 10,0 C 94 % 15 lf 1018,8 hPa 0,0 l/m 0 min 0 min 0 W/m 2,1 km/h (1 Bft)
19.06.2015 22:32 11,5 C 10,0 C 94 % 15 lf 1018,8 hPa 0,0 l/m 0 min 2 min 0 W/m 2,1 km/h (1 Bft)
19.06.2015 22:34 11,5 C 10,0 C 94 % 15 lf 1018,8 hPa 0,0 l/m 0 min 0 min 0 W/m 4,2 km/h (1 Bft)
19.06.2015 22:36 11,5 C 10,6 C 94 % 15 lf 1018,8 hPa 0,0 l/m 0 min 0 min 0 W/m 4,2 km/h (1 Bft)
19.06.2015 22:38 11,5 C 10,6 C 94 % 15 lf 1018,8 hPa 0,0 l/m 0 min 0 min 0 W/m 6,3 km/h (2 Bft)
19.06.2015 22:40 11,5 C 10,6 C 94 % 15 lf 1018,8 hPa 0,0 l/m 0 min 0 min 0 W/m 6,3 km/h (2 Bft)
19.06.2015 22:42 11,5 C 10,6 C 94 % 15 lf 1018,8 hPa 0,0 l/m 0 min 0 min 0 W/m 4,2 km/h (1 Bft)
19.06.2015 22:44 11,5 C 10,6 C 94 % 15 lf 1018,8 hPa 0,0 l/m 0 min 0 min 0 W/m 4,2 km/h (1 Bft)
19.06.2015 22:46 11,5 C 10,6 C 94 % 15 lf 1018,8 hPa 0,0 l/m 0 min 0 min 0 W/m 4,2 km/h (1 Bft)
19.06.2015 22:48 11,5 C 10,6 C 94 % 15 lf 1018,8 hPa 0,0 l/m 0 min 0 min 0 W/m 6,3 km/h (2 Bft)
19.06.2015 22:50 11,5 C 10,6 C 94 % 15 lf 1018,7 hPa 0,0 l/m 0 min 0 min 0 W/m 6,3 km/h (2 Bft)
19.06.2015 22:52 11,5 C 10,6 C 94 % 15 lf 1018,8 hPa 0,0 l/m 0 min 0 min 0 W/m 4,2 km/h (1 Bft)
19.06.2015 22:54 11,5 C 10,6 C 94 % 15 lf 1018,7 hPa 0,0 l/m 0 min 0 min 0 W/m 4,2 km/h (1 Bft)
19.06.2015 22:56 11,5 C 10,6 C 94 % 15 lf 1018,7 hPa 0,0 l/m 0 min 0 min 0 W/m 4,2 km/h (1 Bft)
19.06.2015 22:58 11,5 C 10,6 C 94 % 15 lf 1018,7 hPa 0,0 l/m 0 min 0 min 0 W/m 6,3 km/h (2 Bft)
19.06.2015 23:00 11,5 C 10,6 C 94 % 15 lf 1018,8 hPa 0,0 l/m 0 min 0 min 0 W/m 4,2 km/h (1 Bft)
19.06.2015 23:02 11,5 C 10,6 C 94 % 15 lf 1018,7 hPa 0,0 l/m 0 min 0 min 0 W/m 6,3 km/h (2 Bft)
19.06.2015 23:04 11,5 C 10,6 C 94 % 15 lf 1018,7 hPa 0,0 l/m 0 min 0 min 0 W/m 6,3 km/h (2 Bft)
19.06.2015 23:06 11,5 C 10,6 C 94 % 15 lf 1018,7 hPa 0,0 l/m 0 min 0 min 0 W/m 6,3 km/h (2 Bft)
19.06.2015 23:08 11,5 C 10,6 C 94 % 15 lf 1018,7 hPa 0,0 l/m 0 min 0 min 0 W/m 4,2 km/h (1 Bft)
19.06.2015 23:10 11,6 C 10,6 C 94 % 15 lf 1018,7 hPa 0,0 l/m 0 min 0 min 0 W/m 6,3 km/h (2 Bft)
19.06.2015 23:12 11,5 C 10,6 C 94 % 15 lf 1018,8 hPa 0,0 l/m 0 min 0 min 0 W/m 6,3 km/h (2 Bft)
19.06.2015 23:14 11,5 C 10,6 C 94 % 15 lf 1018,8 hPa 0,2 l/m 0 min 2 min 0 W/m 14,6 km/h (3 Bft)
19.06.2015 23:16 11,6 C 10,6 C 94 % 15 lf 1018,8 hPa 0,0 l/m 0 min 2 min 0 W/m 14,6 km/h (3 Bft)
19.06.2015 23:18 11,6 C 10,6 C 94 % 15 lf 1018,8 hPa 0,0 l/m 0 min 2 min 0 W/m 8,4 km/h (2 Bft)
19.06.2015 23:20 11,6 C 10,6 C 94 % 15 lf 1018,8 hPa 0,0 l/m 0 min 2 min 0 W/m 16,7 km/h (3 Bft)
19.06.2015 23:22 11,6 C 10,6 C 94 % 15 lf 1018,8 hPa 0,0 l/m 0 min 2 min 0 W/m 10,5 km/h (2 Bft)
19.06.2015 23:24 11,6 C 10,6 C 94 % 15 lf 1018,8 hPa 0,0 l/m 0 min 0 min 0 W/m 8,4 km/h (2 Bft)
19.06.2015 23:26 11,6 C 10,6 C 95 % 15 lf 1018,8 hPa 0,0 l/m 0 min 0 min 0 W/m 10,5 km/h (2 Bft)
19.06.2015 23:28 11,6 C 10,0 C 95 % 15 lf 1018,8 hPa 0,0 l/m 0 min 2 min 0 W/m 10,5 km/h (2 Bft)
19.06.2015 23:30 11,6 C 10,0 C 95 % 15 lf 1018,8 hPa 0,0 l/m 0 min 2 min 0 W/m 8,4 km/h (2 Bft)
19.06.2015 23:32 11,6 C 10,0 C 95 % 15 lf 1018,9 hPa 0,0 l/m 0 min 0 min 0 W/m 8,4 km/h (2 Bft)
19.06.2015 23:34 11,6 C 10,0 C 95 % 15 lf 1018,8 hPa 0,0 l/m 0 min 0 min 0 W/m 10,5 km/h (2 Bft)
19.06.2015 23:36 11,6 C 10,0 C 95 % 15 lf 1018,9 hPa 0,0 l/m 0 min 0 min 0 W/m 8,4 km/h (2 Bft)
19.06.2015 23:38 11,5 C 10,0 C 95 % 15 lf 1018,9 hPa 0,0 l/m 0 min 2 min 0 W/m 10,5 km/h (2 Bft)
19.06.2015 23:40 11,5 C 10,0 C 95 % 15 lf 1018,8 hPa 0,0 l/m 0 min 2 min 0 W/m 8,4 km/h (2 Bft)
19.06.2015 23:42 11,5 C 10,0 C 95 % 15 lf 1018,8 hPa 0,0 l/m 0 min 0 min 0 W/m 10,5 km/h (2 Bft)
19.06.2015 23:44 11,5 C 10,0 C 95 % 15 lf 1018,8 hPa 0,0 l/m 0 min 0 min 0 W/m 8,4 km/h (2 Bft)
19.06.2015 23:46 11,5 C 10,0 C 95 % 15 lf 1018,8 hPa 0,0 l/m 0 min 2 min 0 W/m 4,2 km/h (1 Bft)
19.06.2015 23:48 11,4 C 10,0 C 95 % 15 lf 1018,8 hPa 0,0 l/m 0 min 0 min 0 W/m 6,3 km/h (2 Bft)
19.06.2015 23:50 11,4 C 10,0 C 95 % 15 lf 1018,8 hPa 0,0 l/m 0 min 0 min 0 W/m 8,4 km/h (2 Bft)
19.06.2015 23:52 11,4 C 10,0 C 95 % 15 lf 1018,8 hPa 0,0 l/m 0 min 2 min 0 W/m 6,3 km/h (2 Bft)
19.06.2015 23:54 11,4 C 10,0 C 95 % 15 lf 1018,7 hPa 0,0 l/m 0 min 2 min 0 W/m 6,3 km/h (2 Bft)
19.06.2015 23:56 11,4 C 10,0 C 95 % 15 lf 1018,7 hPa 0,0 l/m 0 min 0 min 0 W/m 6,3 km/h (2 Bft)
19.06.2015 23:58 11,4 C 10,0 C 95 % 15 lf 1018,7 hPa 0,0 l/m 0 min 2 min 0 W/m 8,4 km/h (2 Bft)
_ Min-Zeit 23:46 19:04 00:00 00:00 05:32 - - - - 00:00
Minimum _ 11,4 C 10,0 C 76 % 0 lf 1017,2 hPa - - - - 2,1 km/h (1 Bft)
_ Max-Zeit 11:50 11:48 23:26 08:39 23:32 14:36 10:48 06:22 11:34 11:30
Maximum _ 15,9 C 17,8 C 95 % 15 lf 1018,9 hPa 0,8 l/m 2 min 2 min 981 W/m 31,4 km/h
W (5 Bft)
Durchschnitt _ 12,6 C 11,4 C 87 % 8 lf 1017,9 hPa #6,0 l/m #38 min. #4:26 h 117 W/m 11,5 km/h (2 Bft)
© 2015 W. Hausmann